<?xml version='1.0' encoding='UTF-8'?><gpx version="1.1" creator="JPX - https://github.com/jenetics/jpx" xmlns="http://www.topografix.com/GPX/1/1"><trk><trkseg><trkpt lat="44.184763" lon="12.1151861"><ele>29.000000000000004</ele><time>2026-03-29T13:11:15.331Z</time></trkpt><trkpt lat="44.184701" lon="12.1152347"><ele>29.0</ele><time>2026-03-29T13:11:21.419Z</time></trkpt><trkpt lat="44.1846263" lon="12.1151809"><ele>29.000000000000004</ele><time>2026-03-29T13:11:24.364Z</time></trkpt><trkpt lat="44.1845495" lon="12.1151697"><ele>29.000000000000004</ele><time>2026-03-29T13:11:28.332Z</time></trkpt><trkpt lat="44.1844867" lon="12.11515"><ele>29.0</ele><time>2026-03-29T13:11:32.289Z</time></trkpt><trkpt lat="44.1844132" lon="12.1151226"><ele>29.000000000000004</ele><time>2026-03-29T13:11:37.369Z</time></trkpt><trkpt lat="44.1843454" lon="12.1150769"><ele>29.000000000000004</ele><time>2026-03-29T13:11:41.432Z</time></trkpt><trkpt lat="44.1842907" lon="12.115024"><ele>29.000000000000004</ele><time>2026-03-29T13:11:51.389Z</time></trkpt><trkpt lat="44.1842243" lon="12.114955"><ele>29.0</ele><time>2026-03-29T13:11:58.428Z</time></trkpt><trkpt lat="44.1841679" lon="12.1149026"><ele>29.000000000000004</ele><time>2026-03-29T13:12:04.393Z</time></trkpt><trkpt lat="44.1841092" lon="12.1148443"><ele>29.000000000000004</ele><time>2026-03-29T13:12:11.428Z</time></trkpt><trkpt lat="44.1840491" lon="12.1147999"><ele>29.0</ele><time>2026-03-29T13:12:17.288Z</time></trkpt><trkpt lat="44.183987" lon="12.1147648"><ele>29.000000000000004</ele><time>2026-03-29T13:12:22.376Z</time></trkpt><trkpt lat="44.1839245" lon="12.1147119"><ele>29.000000000000004</ele><time>2026-03-29T13:12:28.428Z</time></trkpt><trkpt lat="44.1838545" lon="12.114688"><ele>28.71428571428572</ele><time>2026-03-29T13:12:39.409Z</time></trkpt><trkpt lat="44.1837831" lon="12.114704"><ele>28.42857142857143</ele><time>2026-03-29T13:12:46.245Z</time></trkpt><trkpt lat="44.1837173" lon="12.1147306"><ele>28.142857142857146</ele><time>2026-03-29T13:12:51.406Z</time></trkpt><trkpt lat="44.1836277" lon="12.1147054"><ele>27.85714285714286</ele><time>2026-03-29T13:12:56.409Z</time></trkpt><trkpt lat="44.1835797" lon="12.1146477"><ele>27.57142857142857</ele><time>2026-03-29T13:13:01.286Z</time></trkpt><trkpt lat="44.1835272" lon="12.1145925"><ele>27.285714285714285</ele><time>2026-03-29T13:13:05.328Z</time></trkpt><trkpt lat="44.1834612" lon="12.1145399"><ele>27.0</ele><time>2026-03-29T13:13:10.429Z</time></trkpt><trkpt lat="44.1834133" lon="12.1144734"><ele>27.0</ele><time>2026-03-29T13:13:15.306Z</time></trkpt><trkpt lat="44.1833718" lon="12.1144057"><ele>27.0</ele><time>2026-03-29T13:13:19.347Z</time></trkpt><trkpt lat="44.1833331" lon="12.1143222"><ele>27.0</ele><time>2026-03-29T13:13:24.348Z</time></trkpt><trkpt lat="44.1832945" lon="12.1142512"><ele>27.0</ele><time>2026-03-29T13:13:29.448Z</time></trkpt><trkpt lat="44.1832557" lon="12.1141745"><ele>27.0</ele><time>2026-03-29T13:13:35.219Z</time></trkpt><trkpt lat="44.1832159" lon="12.1141057"><ele>27.0</ele><time>2026-03-29T13:13:41.384Z</time></trkpt><trkpt lat="44.183168" lon="12.1140378"><ele>27.0</ele><time>2026-03-29T13:13:46.394Z</time></trkpt><trkpt lat="44.1831194" lon="12.1139786"><ele>27.142857142857142</ele><time>2026-03-29T13:13:50.309Z</time></trkpt><trkpt lat="44.183059" lon="12.1139484"><ele>27.285714285714285</ele><time>2026-03-29T13:13:55.335Z</time></trkpt><trkpt lat="44.1829864" lon="12.1139777"><ele>27.42857142857143</ele><time>2026-03-29T13:14:02.33Z</time></trkpt><trkpt lat="44.1829184" lon="12.1140096"><ele>27.57142857142857</ele><time>2026-03-29T13:14:09.355Z</time></trkpt><trkpt lat="44.1828535" lon="12.1140237"><ele>27.714285714285715</ele><time>2026-03-29T13:14:14.328Z</time></trkpt><trkpt lat="44.1827851" lon="12.1139973"><ele>27.857142857142858</ele><time>2026-03-29T13:14:19.413Z</time></trkpt><trkpt lat="44.1827214" lon="12.1139571"><ele>28.0</ele><time>2026-03-29T13:14:26.423Z</time></trkpt><trkpt lat="44.1826616" lon="12.1139264"><ele>28.0</ele><time>2026-03-29T13:14:34.384Z</time></trkpt><trkpt lat="44.1826279" lon="12.1140195"><ele>28.0</ele><time>2026-03-29T13:14:40.328Z</time></trkpt><trkpt lat="44.1826008" lon="12.1141088"><ele>28.0</ele><time>2026-03-29T13:14:47.406Z</time></trkpt><trkpt lat="44.1825715" lon="12.1142046"><ele>28.0</ele><time>2026-03-29T13:14:53.347Z</time></trkpt><trkpt lat="44.1825413" lon="12.1142887"><ele>28.0</ele><time>2026-03-29T13:14:59.34Z</time></trkpt><trkpt lat="44.1825016" lon="12.1143843"><ele>28.0</ele><time>2026-03-29T13:15:05.652Z</time></trkpt><trkpt lat="44.1824693" lon="12.1144727"><ele>28.0</ele><time>2026-03-29T13:15:11.332Z</time></trkpt><trkpt lat="44.1824366" lon="12.1145601"><ele>28.0</ele><time>2026-03-29T13:15:18.339Z</time></trkpt><trkpt lat="44.1824066" lon="12.1146403"><ele>28.0</ele><time>2026-03-29T13:15:23.419Z</time></trkpt><trkpt lat="44.1823742" lon="12.1147229"><ele>28.0</ele><time>2026-03-29T13:15:28.389Z</time></trkpt><trkpt lat="44.182342" lon="12.1148081"><ele>28.0</ele><time>2026-03-29T13:15:34.392Z</time></trkpt><trkpt lat="44.1823092" lon="12.1148942"><ele>28.0</ele><time>2026-03-29T13:15:40.386Z</time></trkpt><trkpt lat="44.1822781" lon="12.1149804"><ele>28.0</ele><time>2026-03-29T13:15:47.396Z</time></trkpt><trkpt lat="44.1822455" lon="12.1150671"><ele>28.0</ele><time>2026-03-29T13:15:53.392Z</time></trkpt><trkpt lat="44.1822162" lon="12.1151466"><ele>27.857142857142858</ele><time>2026-03-29T13:15:58.327Z</time></trkpt><trkpt lat="44.1821848" lon="12.11523"><ele>27.714285714285715</ele><time>2026-03-29T13:16:04.363Z</time></trkpt><trkpt lat="44.1821558" lon="12.1153124"><ele>27.57142857142857</ele><time>2026-03-29T13:16:09.426Z</time></trkpt><trkpt lat="44.1821239" lon="12.1153986"><ele>27.42857142857143</ele><time>2026-03-29T13:16:15.336Z</time></trkpt><trkpt lat="44.1820915" lon="12.1154895"><ele>27.285714285714285</ele><time>2026-03-29T13:16:21.432Z</time></trkpt><trkpt lat="44.1820621" lon="12.1155681"><ele>27.142857142857142</ele><time>2026-03-29T13:16:27.446Z</time></trkpt><trkpt lat="44.1820291" lon="12.1156592"><ele>27.0</ele><time>2026-03-29T13:16:34.386Z</time></trkpt><trkpt lat="44.1820002" lon="12.1157376"><ele>27.285714285714285</ele><time>2026-03-29T13:16:39.415Z</time></trkpt><trkpt lat="44.1819712" lon="12.115816"><ele>27.57142857142857</ele><time>2026-03-29T13:16:44.347Z</time></trkpt><trkpt lat="44.1819426" lon="12.1158955"><ele>27.85714285714286</ele><time>2026-03-29T13:16:49.371Z</time></trkpt><trkpt lat="44.1819157" lon="12.11598"><ele>28.142857142857146</ele><time>2026-03-29T13:16:55.349Z</time></trkpt><trkpt lat="44.1818884" lon="12.1160613"><ele>28.42857142857143</ele><time>2026-03-29T13:17:00.344Z</time></trkpt><trkpt lat="44.1818515" lon="12.1161409"><ele>28.71428571428572</ele><time>2026-03-29T13:17:06.325Z</time></trkpt><trkpt lat="44.1818304" lon="12.1162257"><ele>29.000000000000004</ele><time>2026-03-29T13:17:12.434Z</time></trkpt><trkpt lat="44.1817994" lon="12.1163163"><ele>29.000000000000004</ele><time>2026-03-29T13:17:18.429Z</time></trkpt><trkpt lat="44.1817667" lon="12.1163916"><ele>29.0</ele><time>2026-03-29T13:17:23.267Z</time></trkpt><trkpt lat="44.1817252" lon="12.1164763"><ele>29.000000000000004</ele><time>2026-03-29T13:17:29.401Z</time></trkpt><trkpt lat="44.1816816" lon="12.1165426"><ele>29.000000000000004</ele><time>2026-03-29T13:17:35.396Z</time></trkpt><trkpt lat="44.1816337" lon="12.1166048"><ele>29.0</ele><time>2026-03-29T13:17:40.374Z</time></trkpt><trkpt lat="44.181598" lon="12.1166899"><ele>29.000000000000004</ele><time>2026-03-29T13:17:45.306Z</time></trkpt><trkpt lat="44.1815481" lon="12.1167713"><ele>29.000000000000004</ele><time>2026-03-29T13:17:50.432Z</time></trkpt><trkpt lat="44.1815067" lon="12.1168541"><ele>29.142857142857146</ele><time>2026-03-29T13:17:55.411Z</time></trkpt><trkpt lat="44.1814795" lon="12.1169354"><ele>29.285714285714285</ele><time>2026-03-29T13:18:01.329Z</time></trkpt><trkpt lat="44.1814575" lon="12.1170221"><ele>29.42857142857143</ele><time>2026-03-29T13:18:07.399Z</time></trkpt><trkpt lat="44.1814224" lon="12.1170984"><ele>29.571428571428573</ele><time>2026-03-29T13:18:13.326Z</time></trkpt><trkpt lat="44.1813928" lon="12.1171781"><ele>29.714285714285715</ele><time>2026-03-29T13:18:18.426Z</time></trkpt><trkpt lat="44.1813439" lon="12.1172505"><ele>29.857142857142858</ele><time>2026-03-29T13:18:24.366Z</time></trkpt><trkpt lat="44.1812973" lon="12.1173238"><ele>30.0</ele><time>2026-03-29T13:18:30.429Z</time></trkpt><trkpt lat="44.1812543" lon="12.1173976"><ele>30.285714285714285</ele><time>2026-03-29T13:18:35.441Z</time></trkpt><trkpt lat="44.1812159" lon="12.1174898"><ele>30.57142857142857</ele><time>2026-03-29T13:18:40.419Z</time></trkpt><trkpt lat="44.1811866" lon="12.117578"><ele>30.857142857142854</ele><time>2026-03-29T13:18:46.409Z</time></trkpt><trkpt lat="44.181155" lon="12.1176543"><ele>31.142857142857142</ele><time>2026-03-29T13:18:50.368Z</time></trkpt><trkpt lat="44.1811223" lon="12.1177373"><ele>31.428571428571423</ele><time>2026-03-29T13:18:56.269Z</time></trkpt><trkpt lat="44.1810871" lon="12.1178254"><ele>31.71428571428571</ele><time>2026-03-29T13:19:02.364Z</time></trkpt><trkpt lat="44.1810539" lon="12.1179108"><ele>32.0</ele><time>2026-03-29T13:19:07.343Z</time></trkpt><trkpt lat="44.1810239" lon="12.1179941"><ele>32.0</ele><time>2026-03-29T13:19:12.389Z</time></trkpt><trkpt lat="44.1809878" lon="12.118074"><ele>31.999999999999996</ele><time>2026-03-29T13:19:17.427Z</time></trkpt><trkpt lat="44.1809553" lon="12.1181524"><ele>32.0</ele><time>2026-03-29T13:19:23.395Z</time></trkpt><trkpt lat="44.1809239" lon="12.1182289"><ele>32.0</ele><time>2026-03-29T13:19:28.374Z</time></trkpt><trkpt lat="44.1808893" lon="12.1183126"><ele>31.999999999999996</ele><time>2026-03-29T13:19:34.428Z</time></trkpt><trkpt lat="44.1808559" lon="12.1183953"><ele>32.0</ele><time>2026-03-29T13:19:40.363Z</time></trkpt><trkpt lat="44.1808194" lon="12.1184757"><ele>32.0</ele><time>2026-03-29T13:19:46.357Z</time></trkpt><trkpt lat="44.1807863" lon="12.1185507"><ele>32.0</ele><time>2026-03-29T13:19:52.27Z</time></trkpt><trkpt lat="44.1807512" lon="12.1186329"><ele>31.999999999999996</ele><time>2026-03-29T13:19:58.347Z</time></trkpt><trkpt lat="44.1807179" lon="12.1187244"><ele>32.0</ele><time>2026-03-29T13:20:04.409Z</time></trkpt><trkpt lat="44.180683" lon="12.1188135"><ele>32.0</ele><time>2026-03-29T13:20:09.421Z</time></trkpt><trkpt lat="44.1806466" lon="12.1188968"><ele>31.999999999999996</ele><time>2026-03-29T13:20:14.398Z</time></trkpt><trkpt lat="44.1806174" lon="12.1189887"><ele>32.0</ele><time>2026-03-29T13:20:20.81Z</time></trkpt><trkpt lat="44.1805794" lon="12.1190811"><ele>32.0</ele><time>2026-03-29T13:20:26.387Z</time></trkpt><trkpt lat="44.1805494" lon="12.1191688"><ele>32.0</ele><time>2026-03-29T13:20:31.366Z</time></trkpt><trkpt lat="44.1805158" lon="12.1192628"><ele>31.999999999999996</ele><time>2026-03-29T13:20:38.427Z</time></trkpt><trkpt lat="44.1804804" lon="12.1193504"><ele>32.0</ele><time>2026-03-29T13:20:43.354Z</time></trkpt><trkpt lat="44.1804406" lon="12.1194334"><ele>32.0</ele><time>2026-03-29T13:20:49.35Z</time></trkpt><trkpt lat="44.1804054" lon="12.119511"><ele>31.999999999999996</ele><time>2026-03-29T13:20:55.386Z</time></trkpt><trkpt lat="44.1803725" lon="12.1195867"><ele>32.0</ele><time>2026-03-29T13:21:00.423Z</time></trkpt><trkpt lat="44.1803365" lon="12.1196695"><ele>32.0</ele><time>2026-03-29T13:21:06.344Z</time></trkpt><trkpt lat="44.1803028" lon="12.1197485"><ele>32.0</ele><time>2026-03-29T13:21:12.412Z</time></trkpt><trkpt lat="44.1802752" lon="12.1198327"><ele>31.999999999999996</ele><time>2026-03-29T13:21:17.391Z</time></trkpt><trkpt lat="44.1802383" lon="12.1199247"><ele>32.0</ele><time>2026-03-29T13:21:23.385Z</time></trkpt><trkpt lat="44.1802088" lon="12.1200087"><ele>32.0</ele><time>2026-03-29T13:21:28.249Z</time></trkpt><trkpt lat="44.1801764" lon="12.1200899"><ele>31.999999999999996</ele><time>2026-03-29T13:21:33.444Z</time></trkpt><trkpt lat="44.1801498" lon="12.1201777"><ele>32.0</ele><time>2026-03-29T13:21:39.336Z</time></trkpt><trkpt lat="44.1801914" lon="12.1202539"><ele>32.0</ele><time>2026-03-29T13:21:46.39Z</time></trkpt><trkpt lat="44.180231" lon="12.1203418"><ele>32.0</ele><time>2026-03-29T13:21:51.426Z</time></trkpt><trkpt lat="44.1802495" lon="12.1204281"><ele>31.999999999999996</ele><time>2026-03-29T13:22:01.328Z</time></trkpt><trkpt lat="44.1802732" lon="12.1205096"><ele>32.0</ele><time>2026-03-29T13:22:06.362Z</time></trkpt><trkpt lat="44.1802626" lon="12.1206044"><ele>32.0</ele><time>2026-03-29T13:22:13.372Z</time></trkpt><trkpt lat="44.1802588" lon="12.1207048"><ele>31.999999999999996</ele><time>2026-03-29T13:22:18.309Z</time></trkpt><trkpt lat="44.1803202" lon="12.1207465"><ele>32.0</ele><time>2026-03-29T13:22:26.378Z</time></trkpt><trkpt lat="44.1803898" lon="12.1207718"><ele>32.0</ele><time>2026-03-29T13:22:33.387Z</time></trkpt><trkpt lat="44.1804547" lon="12.1207344"><ele>32.0</ele><time>2026-03-29T13:22:38.367Z</time></trkpt><trkpt lat="44.1805206" lon="12.120702"><ele>31.999999999999996</ele><time>2026-03-29T13:22:44.36Z</time></trkpt><trkpt lat="44.1805894" lon="12.1207381"><ele>32.0</ele><time>2026-03-29T13:22:49.44Z</time></trkpt><trkpt lat="44.1806467" lon="12.1207855"><ele>32.0</ele><time>2026-03-29T13:22:54.42Z</time></trkpt><trkpt lat="44.1807065" lon="12.1208466"><ele>31.999999999999996</ele><time>2026-03-29T13:23:02.344Z</time></trkpt><trkpt lat="44.1807622" lon="12.1208928"><ele>32.0</ele><time>2026-03-29T13:23:07.424Z</time></trkpt><trkpt lat="44.1808199" lon="12.1209397"><ele>32.0</ele><time>2026-03-29T13:23:12.403Z</time></trkpt><trkpt lat="44.1808719" lon="12.1209933"><ele>32.14285714285714</ele><time>2026-03-29T13:23:17.38Z</time></trkpt><trkpt lat="44.1809308" lon="12.1210287"><ele>32.285714285714285</ele><time>2026-03-29T13:23:22.689Z</time></trkpt><trkpt lat="44.1809969" lon="12.12107"><ele>32.42857142857143</ele><time>2026-03-29T13:23:30.385Z</time></trkpt><trkpt lat="44.1810531" lon="12.1211106"><ele>32.57142857142857</ele><time>2026-03-29T13:23:36.389Z</time></trkpt><trkpt lat="44.1811182" lon="12.1211608"><ele>32.714285714285715</ele><time>2026-03-29T13:23:41.409Z</time></trkpt><trkpt lat="44.181175" lon="12.1211988"><ele>32.857142857142854</ele><time>2026-03-29T13:23:45.367Z</time></trkpt><trkpt lat="44.1812368" lon="12.121242"><ele>33.0</ele><time>2026-03-29T13:23:50.4Z</time></trkpt><trkpt lat="44.1813023" lon="12.121288"><ele>33.0</ele><time>2026-03-29T13:23:57.411Z</time></trkpt><trkpt lat="44.1813685" lon="12.1213357"><ele>33.0</ele><time>2026-03-29T13:24:03.406Z</time></trkpt><trkpt lat="44.1814332" lon="12.121385"><ele>33.0</ele><time>2026-03-29T13:24:09.4Z</time></trkpt><trkpt lat="44.1814883" lon="12.1214283"><ele>33.0</ele><time>2026-03-29T13:24:14.466Z</time></trkpt><trkpt lat="44.1815515" lon="12.1214686"><ele>33.0</ele><time>2026-03-29T13:24:20.368Z</time></trkpt><trkpt lat="44.1816166" lon="12.1215224"><ele>33.0</ele><time>2026-03-29T13:24:26.367Z</time></trkpt><trkpt lat="44.1816761" lon="12.1215644"><ele>33.0</ele><time>2026-03-29T13:24:31.346Z</time></trkpt><trkpt lat="44.1817344" lon="12.1216074"><ele>32.857142857142854</ele><time>2026-03-29T13:24:36.426Z</time></trkpt><trkpt lat="44.1817913" lon="12.121653"><ele>32.714285714285715</ele><time>2026-03-29T13:24:41.403Z</time></trkpt><trkpt lat="44.1818543" lon="12.121703"><ele>32.57142857142857</ele><time>2026-03-29T13:24:46.382Z</time></trkpt><trkpt lat="44.181912" lon="12.1217536"><ele>32.42857142857143</ele><time>2026-03-29T13:24:51.36Z</time></trkpt><trkpt lat="44.1819682" lon="12.1217943"><ele>32.285714285714285</ele><time>2026-03-29T13:24:57.355Z</time></trkpt><trkpt lat="44.1820308" lon="12.121851"><ele>32.14285714285714</ele><time>2026-03-29T13:25:03.35Z</time></trkpt><trkpt lat="44.1820943" lon="12.1218969"><ele>32.0</ele><time>2026-03-29T13:25:09.344Z</time></trkpt><trkpt lat="44.1821542" lon="12.1219512"><ele>32.0</ele><time>2026-03-29T13:25:16.354Z</time></trkpt><trkpt lat="44.1821544" lon="12.122041"><ele>31.999999999999996</ele><time>2026-03-29T13:25:25.366Z</time></trkpt><trkpt lat="44.1821341" lon="12.1221325"><ele>32.0</ele><time>2026-03-29T13:25:32.309Z</time></trkpt><trkpt lat="44.1821173" lon="12.1222175"><ele>32.0</ele><time>2026-03-29T13:25:37.385Z</time></trkpt><trkpt lat="44.1820948" lon="12.1223181"><ele>31.999999999999996</ele><time>2026-03-29T13:25:42.363Z</time></trkpt><trkpt lat="44.1820666" lon="12.1223989"><ele>32.0</ele><time>2026-03-29T13:25:47.342Z</time></trkpt><trkpt lat="44.1820415" lon="12.122483"><ele>32.0</ele><time>2026-03-29T13:25:52.422Z</time></trkpt><trkpt lat="44.182014" lon="12.1225642"><ele>31.857142857142854</ele><time>2026-03-29T13:25:57.4Z</time></trkpt><trkpt lat="44.1819848" lon="12.1226597"><ele>31.71428571428571</ele><time>2026-03-29T13:26:03.394Z</time></trkpt><trkpt lat="44.1819546" lon="12.1227501"><ele>31.57142857142857</ele><time>2026-03-29T13:26:09.389Z</time></trkpt><trkpt lat="44.1819278" lon="12.1228384"><ele>31.42857142857143</ele><time>2026-03-29T13:26:14.367Z</time></trkpt><trkpt lat="44.1819042" lon="12.1229344"><ele>31.28571428571429</ele><time>2026-03-29T13:26:19.346Z</time></trkpt><trkpt lat="44.1818764" lon="12.1230204"><ele>31.142857142857146</ele><time>2026-03-29T13:26:25.34Z</time></trkpt><trkpt lat="44.1818474" lon="12.1231121"><ele>31.0</ele><time>2026-03-29T13:26:31.436Z</time></trkpt><trkpt lat="44.1818212" lon="12.1231931"><ele>30.857142857142858</ele><time>2026-03-29T13:26:36.406Z</time></trkpt><trkpt lat="44.1817914" lon="12.1232835"><ele>30.714285714285715</ele><time>2026-03-29T13:26:42.408Z</time></trkpt><trkpt lat="44.1817694" lon="12.1233691"><ele>30.571428571428573</ele><time>2026-03-29T13:26:48.404Z</time></trkpt><trkpt lat="44.1817416" lon="12.1234576"><ele>30.42857142857143</ele><time>2026-03-29T13:26:53.309Z</time></trkpt><trkpt lat="44.1817067" lon="12.1235321"><ele>30.285714285714285</ele><time>2026-03-29T13:26:57.346Z</time></trkpt><trkpt lat="44.1816624" lon="12.1235952"><ele>30.142857142857146</ele><time>2026-03-29T13:27:02.424Z</time></trkpt><trkpt lat="44.1816131" lon="12.123673"><ele>30.0</ele><time>2026-03-29T13:27:07.403Z</time></trkpt><trkpt lat="44.1815675" lon="12.1237516"><ele>30.0</ele><time>2026-03-29T13:27:12.426Z</time></trkpt><trkpt lat="44.1815288" lon="12.1238231"><ele>30.0</ele><time>2026-03-29T13:27:18.374Z</time></trkpt><trkpt lat="44.181483" lon="12.1238885"><ele>30.0</ele><time>2026-03-29T13:27:24.369Z</time></trkpt><trkpt lat="44.1814483" lon="12.1239703"><ele>30.0</ele><time>2026-03-29T13:27:31.388Z</time></trkpt><trkpt lat="44.1814413" lon="12.1240684"><ele>30.0</ele><time>2026-03-29T13:27:37.373Z</time></trkpt><trkpt lat="44.1814347" lon="12.1241624"><ele>30.0</ele><time>2026-03-29T13:27:42.387Z</time></trkpt><trkpt lat="44.1814411" lon="12.1242508"><ele>30.0</ele><time>2026-03-29T13:27:48.346Z</time></trkpt><trkpt lat="44.1814468" lon="12.1243536"><ele>30.0</ele><time>2026-03-29T13:27:54.341Z</time></trkpt><trkpt lat="44.1814437" lon="12.1244655"><ele>30.0</ele><time>2026-03-29T13:27:59.421Z</time></trkpt><trkpt lat="44.1814405" lon="12.1245635"><ele>30.0</ele><time>2026-03-29T13:28:03.306Z</time></trkpt><trkpt lat="44.18148" lon="12.1246438"><ele>30.0</ele><time>2026-03-29T13:28:09.377Z</time></trkpt><trkpt lat="44.1815421" lon="12.1246989"><ele>30.0</ele><time>2026-03-29T13:28:16.447Z</time></trkpt><trkpt lat="44.1816037" lon="12.1247478"><ele>30.0</ele><time>2026-03-29T13:28:22.382Z</time></trkpt><trkpt lat="44.1816663" lon="12.1247797"><ele>30.0</ele><time>2026-03-29T13:28:28.377Z</time></trkpt><trkpt lat="44.1817337" lon="12.1248182"><ele>30.142857142857146</ele><time>2026-03-29T13:28:34.29Z</time></trkpt><trkpt lat="44.1817926" lon="12.12486"><ele>30.285714285714285</ele><time>2026-03-29T13:28:39.35Z</time></trkpt><trkpt lat="44.1818502" lon="12.1248969"><ele>30.42857142857143</ele><time>2026-03-29T13:28:44.429Z</time></trkpt><trkpt lat="44.1819159" lon="12.1249324"><ele>30.571428571428573</ele><time>2026-03-29T13:28:50.424Z</time></trkpt><trkpt lat="44.1819776" lon="12.1249783"><ele>30.714285714285715</ele><time>2026-03-29T13:28:56.311Z</time></trkpt><trkpt lat="44.1820436" lon="12.1250127"><ele>30.857142857142858</ele><time>2026-03-29T13:29:02.412Z</time></trkpt><trkpt lat="44.1821084" lon="12.1250596"><ele>31.0</ele><time>2026-03-29T13:29:08.407Z</time></trkpt><trkpt lat="44.1821728" lon="12.1250949"><ele>31.0</ele><time>2026-03-29T13:29:14.402Z</time></trkpt><trkpt lat="44.1822423" lon="12.1251154"><ele>31.000000000000004</ele><time>2026-03-29T13:29:20.397Z</time></trkpt><trkpt lat="44.1823067" lon="12.1251421"><ele>31.0</ele><time>2026-03-29T13:29:25.374Z</time></trkpt><trkpt lat="44.1823725" lon="12.1251728"><ele>31.0</ele><time>2026-03-29T13:29:30.43Z</time></trkpt><trkpt lat="44.1824339" lon="12.1252133"><ele>31.000000000000004</ele><time>2026-03-29T13:29:35.432Z</time></trkpt><trkpt lat="44.1825" lon="12.1252578"><ele>31.0</ele><time>2026-03-29T13:29:41.427Z</time></trkpt><trkpt lat="44.1825601" lon="12.1253053"><ele>31.0</ele><time>2026-03-29T13:29:47.421Z</time></trkpt><trkpt lat="44.1826206" lon="12.125358"><ele>30.714285714285715</ele><time>2026-03-29T13:29:53.415Z</time></trkpt><trkpt lat="44.1826877" lon="12.1254001"><ele>30.42857142857143</ele><time>2026-03-29T13:29:59.347Z</time></trkpt><trkpt lat="44.182751" lon="12.1254276"><ele>30.142857142857146</ele><time>2026-03-29T13:30:04.388Z</time></trkpt><trkpt lat="44.1828166" lon="12.1254733"><ele>29.85714285714286</ele><time>2026-03-29T13:30:10.429Z</time></trkpt><trkpt lat="44.1828823" lon="12.1255066"><ele>29.571428571428573</ele><time>2026-03-29T13:30:16.29Z</time></trkpt><trkpt lat="44.1829445" lon="12.1255433"><ele>29.285714285714292</ele><time>2026-03-29T13:30:22.371Z</time></trkpt><trkpt lat="44.1830127" lon="12.1255819"><ele>29.000000000000004</ele><time>2026-03-29T13:30:28.365Z</time></trkpt><trkpt lat="44.1830803" lon="12.1256119"><ele>29.000000000000004</ele><time>2026-03-29T13:30:33.345Z</time></trkpt><trkpt lat="44.1831479" lon="12.1256442"><ele>29.0</ele><time>2026-03-29T13:30:38.425Z</time></trkpt><trkpt lat="44.1832088" lon="12.1256778"><ele>29.000000000000004</ele><time>2026-03-29T13:30:43.386Z</time></trkpt><trkpt lat="44.1832654" lon="12.1257211"><ele>29.000000000000004</ele><time>2026-03-29T13:30:48.38Z</time></trkpt><trkpt lat="44.1833224" lon="12.1257684"><ele>29.0</ele><time>2026-03-29T13:30:54.425Z</time></trkpt><trkpt lat="44.1833834" lon="12.1258065"><ele>29.000000000000004</ele><time>2026-03-29T13:31:00.267Z</time></trkpt><trkpt lat="44.1834057" lon="12.1258899"><ele>29.000000000000004</ele><time>2026-03-29T13:31:08.395Z</time></trkpt><trkpt lat="44.1834086" lon="12.1259794"><ele>29.000000000000004</ele><time>2026-03-29T13:31:16.423Z</time></trkpt><trkpt lat="44.1833987" lon="12.126068"><ele>29.0</ele><time>2026-03-29T13:31:24.347Z</time></trkpt><trkpt lat="44.1833871" lon="12.1261609"><ele>29.000000000000004</ele><time>2026-03-29T13:31:31.349Z</time></trkpt><trkpt lat="44.1833703" lon="12.1262488"><ele>29.000000000000004</ele><time>2026-03-29T13:31:38.367Z</time></trkpt><trkpt lat="44.1833412" lon="12.1263339"><ele>29.0</ele><time>2026-03-29T13:32:17.382Z</time></trkpt><trkpt lat="44.1833012" lon="12.1264109"><ele>29.000000000000004</ele><time>2026-03-29T13:32:25.408Z</time></trkpt><trkpt lat="44.183236" lon="12.1264138"><ele>29.000000000000004</ele><time>2026-03-29T13:33:00.358Z</time></trkpt><trkpt lat="44.1831959" lon="12.1264924"><ele>29.142857142857146</ele><time>2026-03-29T13:33:25.352Z</time></trkpt><trkpt lat="44.1831823" lon="12.1265793"><ele>29.285714285714285</ele><time>2026-03-29T13:33:32.247Z</time></trkpt><trkpt lat="44.1832093" lon="12.1266735"><ele>29.42857142857143</ele><time>2026-03-29T13:33:39.372Z</time></trkpt><trkpt lat="44.1832099" lon="12.1267624"><ele>29.571428571428573</ele><time>2026-03-29T13:33:45.367Z</time></trkpt><trkpt lat="44.1832015" lon="12.1268546"><ele>29.714285714285715</ele><time>2026-03-29T13:33:53.393Z</time></trkpt><trkpt lat="44.1831818" lon="12.1269382"><ele>29.857142857142858</ele><time>2026-03-29T13:33:59.308Z</time></trkpt><trkpt lat="44.1831513" lon="12.1270189"><ele>30.0</ele><time>2026-03-29T13:34:05.349Z</time></trkpt><trkpt lat="44.1831217" lon="12.1271035"><ele>30.0</ele><time>2026-03-29T13:34:11.377Z</time></trkpt><trkpt lat="44.1830989" lon="12.1271978"><ele>30.0</ele><time>2026-03-29T13:34:18.388Z</time></trkpt><trkpt lat="44.1830551" lon="12.1272642"><ele>30.0</ele><time>2026-03-29T13:34:24.381Z</time></trkpt><trkpt lat="44.1829868" lon="12.1272802"><ele>30.0</ele><time>2026-03-29T13:34:31.346Z</time></trkpt><trkpt lat="44.1829234" lon="12.1272769"><ele>30.0</ele><time>2026-03-29T13:34:36.371Z</time></trkpt><trkpt lat="44.1828548" lon="12.1272933"><ele>30.0</ele><time>2026-03-29T13:34:41.348Z</time></trkpt><trkpt lat="44.1827879" lon="12.1273069"><ele>30.0</ele><time>2026-03-29T13:34:47.343Z</time></trkpt><trkpt lat="44.1827239" lon="12.1273237"><ele>30.0</ele><time>2026-03-29T13:34:53.008Z</time></trkpt><trkpt lat="44.1826614" lon="12.1273429"><ele>30.0</ele><time>2026-03-29T13:34:58.417Z</time></trkpt><trkpt lat="44.1825863" lon="12.1273617"><ele>30.0</ele><time>2026-03-29T13:35:04.413Z</time></trkpt><trkpt lat="44.1825165" lon="12.1273768"><ele>30.0</ele><time>2026-03-29T13:35:10.407Z</time></trkpt><trkpt lat="44.182452" lon="12.1273919"><ele>30.0</ele><time>2026-03-29T13:35:15.367Z</time></trkpt><trkpt lat="44.1823857" lon="12.1273927"><ele>30.0</ele><time>2026-03-29T13:35:20.363Z</time></trkpt><trkpt lat="44.1823205" lon="12.1274094"><ele>30.0</ele><time>2026-03-29T13:35:25.341Z</time></trkpt><trkpt lat="44.1822566" lon="12.1274292"><ele>30.0</ele><time>2026-03-29T13:35:30.422Z</time></trkpt><trkpt lat="44.1821886" lon="12.1274425"><ele>30.0</ele><time>2026-03-29T13:35:36.369Z</time></trkpt><trkpt lat="44.1821272" lon="12.1274696"><ele>30.0</ele><time>2026-03-29T13:35:43.39Z</time></trkpt><trkpt lat="44.1820666" lon="12.1275035"><ele>30.0</ele><time>2026-03-29T13:35:49.421Z</time></trkpt><trkpt lat="44.1819985" lon="12.1275375"><ele>30.0</ele><time>2026-03-29T13:35:55.416Z</time></trkpt><trkpt lat="44.1819393" lon="12.1275826"><ele>30.0</ele><time>2026-03-29T13:36:00.394Z</time></trkpt><trkpt lat="44.1818767" lon="12.12764"><ele>30.0</ele><time>2026-03-29T13:36:06.365Z</time></trkpt><trkpt lat="44.1818237" lon="12.1276916"><ele>30.0</ele><time>2026-03-29T13:36:11.366Z</time></trkpt><trkpt lat="44.1817826" lon="12.1277646"><ele>30.0</ele><time>2026-03-29T13:36:17.347Z</time></trkpt><trkpt lat="44.1817485" lon="12.1278391"><ele>30.0</ele><time>2026-03-29T13:36:22.339Z</time></trkpt><trkpt lat="44.1816996" lon="12.1279184"><ele>30.0</ele><time>2026-03-29T13:36:28.435Z</time></trkpt><trkpt lat="44.1816518" lon="12.1279919"><ele>30.0</ele><time>2026-03-29T13:36:34.429Z</time></trkpt><trkpt lat="44.1815988" lon="12.1280605"><ele>30.0</ele><time>2026-03-29T13:36:40.368Z</time></trkpt><trkpt lat="44.1815511" lon="12.1281333"><ele>30.0</ele><time>2026-03-29T13:36:45.402Z</time></trkpt><trkpt lat="44.1815005" lon="12.1281927"><ele>29.857142857142858</ele><time>2026-03-29T13:36:51.396Z</time></trkpt><trkpt lat="44.1814452" lon="12.128276"><ele>29.714285714285715</ele><time>2026-03-29T13:36:57.087Z</time></trkpt><trkpt lat="44.1814189" lon="12.1283592"><ele>29.571428571428573</ele><time>2026-03-29T13:37:03.385Z</time></trkpt><trkpt lat="44.1813858" lon="12.1284465"><ele>29.42857142857143</ele><time>2026-03-29T13:37:09.38Z</time></trkpt><trkpt lat="44.1813648" lon="12.1285297"><ele>29.285714285714285</ele><time>2026-03-29T13:37:14.368Z</time></trkpt><trkpt lat="44.1813421" lon="12.1286262"><ele>29.142857142857146</ele><time>2026-03-29T13:37:20.353Z</time></trkpt><trkpt lat="44.1813198" lon="12.1287216"><ele>29.000000000000004</ele><time>2026-03-29T13:37:26.427Z</time></trkpt><trkpt lat="44.1812914" lon="12.1288243"><ele>29.000000000000004</ele><time>2026-03-29T13:37:32.341Z</time></trkpt><trkpt lat="44.1812653" lon="12.1289069"><ele>29.0</ele><time>2026-03-29T13:37:37.388Z</time></trkpt><trkpt lat="44.1812359" lon="12.1290023"><ele>29.000000000000004</ele><time>2026-03-29T13:37:43.416Z</time></trkpt><trkpt lat="44.1811968" lon="12.1290772"><ele>29.000000000000004</ele><time>2026-03-29T13:37:48.347Z</time></trkpt><trkpt lat="44.1811625" lon="12.1291544"><ele>29.0</ele><time>2026-03-29T13:37:53.373Z</time></trkpt><trkpt lat="44.1811263" lon="12.1292343"><ele>29.000000000000004</ele><time>2026-03-29T13:37:57.335Z</time></trkpt><trkpt lat="44.1810835" lon="12.1293175"><ele>29.000000000000004</ele><time>2026-03-29T13:38:02.415Z</time></trkpt><trkpt lat="44.181046" lon="12.1293952"><ele>28.85714285714286</ele><time>2026-03-29T13:38:07.448Z</time></trkpt><trkpt lat="44.1810074" lon="12.1294698"><ele>28.714285714285715</ele><time>2026-03-29T13:38:12.373Z</time></trkpt><trkpt lat="44.1809693" lon="12.1295462"><ele>28.571428571428573</ele><time>2026-03-29T13:38:17.311Z</time></trkpt><trkpt lat="44.1809294" lon="12.1296266"><ele>28.42857142857143</ele><time>2026-03-29T13:38:24.362Z</time></trkpt><trkpt lat="44.1808862" lon="12.1297144"><ele>28.285714285714285</ele><time>2026-03-29T13:38:30.355Z</time></trkpt><trkpt lat="44.1808568" lon="12.1297944"><ele>28.142857142857142</ele><time>2026-03-29T13:38:37.445Z</time></trkpt><trkpt lat="44.1808282" lon="12.1298751"><ele>28.0</ele><time>2026-03-29T13:38:42.344Z</time></trkpt><trkpt lat="44.1807966" lon="12.1299634"><ele>28.0</ele><time>2026-03-29T13:38:48.44Z</time></trkpt><trkpt lat="44.1807613" lon="12.1300364"><ele>28.0</ele><time>2026-03-29T13:38:54.41Z</time></trkpt><trkpt lat="44.1807115" lon="12.1301122"><ele>28.0</ele><time>2026-03-29T13:39:00.336Z</time></trkpt><trkpt lat="44.1806827" lon="12.1302065"><ele>28.0</ele><time>2026-03-29T13:39:06.406Z</time></trkpt><trkpt lat="44.1806558" lon="12.130294"><ele>28.0</ele><time>2026-03-29T13:39:12.418Z</time></trkpt><trkpt lat="44.1806297" lon="12.13039"><ele>28.0</ele><time>2026-03-29T13:39:18.407Z</time></trkpt><trkpt lat="44.1806119" lon="12.1304865"><ele>28.0</ele><time>2026-03-29T13:39:24.407Z</time></trkpt><trkpt lat="44.1805947" lon="12.1305865"><ele>28.142857142857142</ele><time>2026-03-29T13:39:30.387Z</time></trkpt><trkpt lat="44.1805799" lon="12.1306721"><ele>28.285714285714285</ele><time>2026-03-29T13:39:35.379Z</time></trkpt><trkpt lat="44.1805635" lon="12.1307632"><ele>28.42857142857143</ele><time>2026-03-29T13:39:40.358Z</time></trkpt><trkpt lat="44.1805471" lon="12.1308523"><ele>28.571428571428573</ele><time>2026-03-29T13:39:45.336Z</time></trkpt><trkpt lat="44.1805361" lon="12.1309438"><ele>28.714285714285715</ele><time>2026-03-29T13:39:51.432Z</time></trkpt><trkpt lat="44.1805386" lon="12.1310402"><ele>28.85714285714286</ele><time>2026-03-29T13:39:57.405Z</time></trkpt><trkpt lat="44.1805785" lon="12.1311116"><ele>29.000000000000004</ele><time>2026-03-29T13:40:03.421Z</time></trkpt><trkpt lat="44.1806492" lon="12.1311347"><ele>28.85714285714286</ele><time>2026-03-29T13:40:10.432Z</time></trkpt><trkpt lat="44.1807127" lon="12.1311396"><ele>28.714285714285715</ele><time>2026-03-29T13:40:18.289Z</time></trkpt><trkpt lat="44.1807807" lon="12.1311504"><ele>28.571428571428573</ele><time>2026-03-29T13:40:27.4Z</time></trkpt><trkpt lat="44.1808487" lon="12.1311594"><ele>28.42857142857143</ele><time>2026-03-29T13:40:34.409Z</time></trkpt><trkpt lat="44.1809121" lon="12.131167"><ele>28.285714285714285</ele><time>2026-03-29T13:40:39.388Z</time></trkpt><trkpt lat="44.1809794" lon="12.1311765"><ele>28.142857142857142</ele><time>2026-03-29T13:40:44.349Z</time></trkpt><trkpt lat="44.1810428" lon="12.1311866"><ele>28.0</ele><time>2026-03-29T13:40:48.424Z</time></trkpt><trkpt lat="44.1811121" lon="12.1312009"><ele>28.0</ele><time>2026-03-29T13:40:53.408Z</time></trkpt><trkpt lat="44.1811755" lon="12.1312314"><ele>28.0</ele><time>2026-03-29T13:40:58.387Z</time></trkpt><trkpt lat="44.1812337" lon="12.1312708"><ele>28.0</ele><time>2026-03-29T13:41:03.366Z</time></trkpt><trkpt lat="44.1812753" lon="12.13135"><ele>28.0</ele><time>2026-03-29T13:41:08.344Z</time></trkpt><trkpt lat="44.1813152" lon="12.1314304"><ele>28.0</ele><time>2026-03-29T13:41:13.424Z</time></trkpt><trkpt lat="44.181364" lon="12.1315122"><ele>28.0</ele><time>2026-03-29T13:41:19.418Z</time></trkpt><trkpt lat="44.1814191" lon="12.1315651"><ele>28.0</ele><time>2026-03-29T13:41:25.413Z</time></trkpt><trkpt lat="44.1814891" lon="12.1315665"><ele>27.714285714285715</ele><time>2026-03-29T13:41:30.391Z</time></trkpt><trkpt lat="44.1815663" lon="12.1315327"><ele>27.42857142857143</ele><time>2026-03-29T13:41:34.353Z</time></trkpt><trkpt lat="44.1816329" lon="12.1315174"><ele>27.142857142857142</ele><time>2026-03-29T13:41:39.433Z</time></trkpt><trkpt lat="44.1816966" lon="12.1314999"><ele>26.857142857142858</ele><time>2026-03-29T13:41:46.342Z</time></trkpt><trkpt lat="44.1817592" lon="12.1314817"><ele>26.571428571428573</ele><time>2026-03-29T13:41:51.406Z</time></trkpt><trkpt lat="44.1818241" lon="12.1314648"><ele>26.285714285714285</ele><time>2026-03-29T13:41:56.4Z</time></trkpt><trkpt lat="44.181893" lon="12.1314602"><ele>26.0</ele><time>2026-03-29T13:42:01.379Z</time></trkpt><trkpt lat="44.1819636" lon="12.1314869"><ele>26.0</ele><time>2026-03-29T13:42:06.358Z</time></trkpt><trkpt lat="44.1820198" lon="12.13154"><ele>26.0</ele><time>2026-03-29T13:42:11.437Z</time></trkpt><trkpt lat="44.1820844" lon="12.1315734"><ele>26.0</ele><time>2026-03-29T13:42:17.336Z</time></trkpt><trkpt lat="44.1821526" lon="12.1315762"><ele>26.0</ele><time>2026-03-29T13:42:22.41Z</time></trkpt><trkpt lat="44.1822244" lon="12.1315929"><ele>26.0</ele><time>2026-03-29T13:42:28.35Z</time></trkpt><trkpt lat="44.1822975" lon="12.1316069"><ele>26.0</ele><time>2026-03-29T13:42:34.399Z</time></trkpt><trkpt lat="44.1823717" lon="12.1316177"><ele>26.0</ele><time>2026-03-29T13:42:40.393Z</time></trkpt><trkpt lat="44.1824374" lon="12.1316104"><ele>26.142857142857142</ele><time>2026-03-29T13:42:46.286Z</time></trkpt><trkpt lat="44.1825084" lon="12.1316016"><ele>26.28571428571429</ele><time>2026-03-29T13:42:52.382Z</time></trkpt><trkpt lat="44.1825733" lon="12.1315915"><ele>26.42857142857143</ele><time>2026-03-29T13:42:59.393Z</time></trkpt><trkpt lat="44.1826323" lon="12.1315531"><ele>26.57142857142857</ele><time>2026-03-29T13:43:05.406Z</time></trkpt><trkpt lat="44.1826974" lon="12.1315049"><ele>26.714285714285715</ele><time>2026-03-29T13:43:11.381Z</time></trkpt><trkpt lat="44.1827375" lon="12.1314298"><ele>26.857142857142858</ele><time>2026-03-29T13:43:16.405Z</time></trkpt><trkpt lat="44.1827698" lon="12.1313425"><ele>27.0</ele><time>2026-03-29T13:43:21.338Z</time></trkpt><trkpt lat="44.1827772" lon="12.1312401"><ele>27.0</ele><time>2026-03-29T13:43:27.434Z</time></trkpt><trkpt lat="44.1827964" lon="12.1311553"><ele>27.0</ele><time>2026-03-29T13:43:32.412Z</time></trkpt><trkpt lat="44.1828166" lon="12.1310697"><ele>27.0</ele><time>2026-03-29T13:43:38.408Z</time></trkpt><trkpt lat="44.1828122" lon="12.1309744"><ele>27.0</ele><time>2026-03-29T13:43:45.308Z</time></trkpt><trkpt lat="44.1828" lon="12.1308779"><ele>27.0</ele><time>2026-03-29T13:43:52.427Z</time></trkpt><trkpt lat="44.182755" lon="12.1307939"><ele>27.0</ele><time>2026-03-29T13:43:59.438Z</time></trkpt><trkpt lat="44.1827095" lon="12.1307276"><ele>27.0</ele><time>2026-03-29T13:44:04.416Z</time></trkpt><trkpt lat="44.1826566" lon="12.130656"><ele>27.0</ele><time>2026-03-29T13:44:09.327Z</time></trkpt><trkpt lat="44.182606" lon="12.1305962"><ele>27.0</ele><time>2026-03-29T13:44:14.373Z</time></trkpt><trkpt lat="44.182557" lon="12.1305307"><ele>27.0</ele><time>2026-03-29T13:44:19.352Z</time></trkpt><trkpt lat="44.1825021" lon="12.1304666"><ele>27.0</ele><time>2026-03-29T13:44:26.362Z</time></trkpt><trkpt lat="44.18245" lon="12.1304067"><ele>27.0</ele><time>2026-03-29T13:44:33.373Z</time></trkpt><trkpt lat="44.1823996" lon="12.1303475"><ele>27.0</ele><time>2026-03-29T13:44:39.367Z</time></trkpt><trkpt lat="44.1823425" lon="12.1302945"><ele>27.0</ele><time>2026-03-29T13:44:45.362Z</time></trkpt><trkpt lat="44.1822878" lon="12.1302435"><ele>27.0</ele><time>2026-03-29T13:44:50.442Z</time></trkpt><trkpt lat="44.1822304" lon="12.1301805"><ele>27.0</ele><time>2026-03-29T13:44:55.42Z</time></trkpt><trkpt lat="44.1821797" lon="12.130116"><ele>27.0</ele><time>2026-03-29T13:45:00.4Z</time></trkpt><trkpt lat="44.1821266" lon="12.1300477"><ele>27.0</ele><time>2026-03-29T13:45:06.393Z</time></trkpt><trkpt lat="44.1820881" lon="12.1299645"><ele>27.0</ele><time>2026-03-29T13:45:12.388Z</time></trkpt><trkpt lat="44.1820613" lon="12.1298673"><ele>27.0</ele><time>2026-03-29T13:45:18.382Z</time></trkpt><trkpt lat="44.1820377" lon="12.1297776"><ele>27.0</ele><time>2026-03-29T13:45:22.446Z</time></trkpt><trkpt lat="44.182026" lon="12.129679"><ele>27.428571428571427</ele><time>2026-03-29T13:45:27.425Z</time></trkpt><trkpt lat="44.1820288" lon="12.1295838"><ele>27.857142857142854</ele><time>2026-03-29T13:45:31.288Z</time></trkpt><trkpt lat="44.1820199" lon="12.1294882"><ele>28.285714285714285</ele><time>2026-03-29T13:45:36.428Z</time></trkpt><trkpt lat="44.1820222" lon="12.1293972"><ele>28.714285714285715</ele><time>2026-03-29T13:45:42.767Z</time></trkpt><trkpt lat="44.1820462" lon="12.1293083"><ele>29.142857142857142</ele><time>2026-03-29T13:45:47.408Z</time></trkpt><trkpt lat="44.1820655" lon="12.1292227"><ele>29.571428571428573</ele><time>2026-03-29T13:45:52.419Z</time></trkpt><trkpt lat="44.1820809" lon="12.1291349"><ele>30.0</ele><time>2026-03-29T13:45:58.347Z</time></trkpt><trkpt lat="44.182093" lon="12.1290429"><ele>30.0</ele><time>2026-03-29T13:46:05.424Z</time></trkpt><trkpt lat="44.1821068" lon="12.1289447"><ele>30.0</ele><time>2026-03-29T13:46:11.42Z</time></trkpt><trkpt lat="44.1821131" lon="12.1288398"><ele>30.0</ele><time>2026-03-29T13:46:16.397Z</time></trkpt><trkpt lat="44.1821282" lon="12.1287372"><ele>30.0</ele><time>2026-03-29T13:46:21.927Z</time></trkpt><trkpt lat="44.1821725" lon="12.1286616"><ele>30.0</ele><time>2026-03-29T13:46:27.37Z</time></trkpt><trkpt lat="44.1821913" lon="12.1285706"><ele>30.0</ele><time>2026-03-29T13:46:33.365Z</time></trkpt><trkpt lat="44.1822236" lon="12.1284729"><ele>30.0</ele><time>2026-03-29T13:46:45.354Z</time></trkpt><trkpt lat="44.1822462" lon="12.1283895"><ele>30.0</ele><time>2026-03-29T13:46:50.435Z</time></trkpt><trkpt lat="44.1822695" lon="12.1282888"><ele>30.0</ele><time>2026-03-29T13:46:55.413Z</time></trkpt><trkpt lat="44.1822905" lon="12.1281908"><ele>30.0</ele><time>2026-03-29T13:47:01.407Z</time></trkpt><trkpt lat="44.182308" lon="12.1281054"><ele>30.0</ele><time>2026-03-29T13:47:06.347Z</time></trkpt><trkpt lat="44.1823261" lon="12.1280142"><ele>30.0</ele><time>2026-03-29T13:47:12.38Z</time></trkpt><trkpt lat="44.1823497" lon="12.1279132"><ele>30.0</ele><time>2026-03-29T13:47:18.375Z</time></trkpt><trkpt lat="44.1823661" lon="12.1278257"><ele>30.0</ele><time>2026-03-29T13:47:23.349Z</time></trkpt><trkpt lat="44.1823881" lon="12.127737"><ele>30.0</ele><time>2026-03-29T13:47:29.349Z</time></trkpt><trkpt lat="44.1824026" lon="12.1276493"><ele>30.0</ele><time>2026-03-29T13:47:34.428Z</time></trkpt><trkpt lat="44.1824038" lon="12.127553"><ele>30.0</ele><time>2026-03-29T13:47:40.308Z</time></trkpt><trkpt lat="44.1824074" lon="12.1274601"><ele>30.0</ele><time>2026-03-29T13:47:47.445Z</time></trkpt><trkpt lat="44.1824739" lon="12.1274531"><ele>30.0</ele><time>2026-03-29T13:47:54.343Z</time></trkpt><trkpt lat="44.1825439" lon="12.1274929"><ele>30.0</ele><time>2026-03-29T13:47:59.327Z</time></trkpt><trkpt lat="44.1826161" lon="12.1275253"><ele>30.0</ele><time>2026-03-29T13:48:04.401Z</time></trkpt><trkpt lat="44.1826711" lon="12.1275703"><ele>30.0</ele><time>2026-03-29T13:48:09.38Z</time></trkpt><trkpt lat="44.1827327" lon="12.1276217"><ele>30.0</ele><time>2026-03-29T13:48:15.375Z</time></trkpt><trkpt lat="44.1827949" lon="12.1276781"><ele>30.0</ele><time>2026-03-29T13:48:21.33Z</time></trkpt><trkpt lat="44.1828498" lon="12.1277397"><ele>30.0</ele><time>2026-03-29T13:48:26.348Z</time></trkpt><trkpt lat="44.1829031" lon="12.1278078"><ele>30.0</ele><time>2026-03-29T13:48:34.375Z</time></trkpt><trkpt lat="44.1829291" lon="12.1279072"><ele>30.0</ele><time>2026-03-29T13:48:41.385Z</time></trkpt><trkpt lat="44.182946" lon="12.1279955"><ele>30.0</ele><time>2026-03-29T13:48:46.364Z</time></trkpt><trkpt lat="44.1829266" lon="12.1280808"><ele>30.0</ele><time>2026-03-29T13:48:52.328Z</time></trkpt><trkpt lat="44.1828921" lon="12.1281571"><ele>30.0</ele><time>2026-03-29T13:48:57.439Z</time></trkpt><trkpt lat="44.1828532" lon="12.1282402"><ele>30.0</ele><time>2026-03-29T13:49:03.33Z</time></trkpt><trkpt lat="44.1828206" lon="12.1283358"><ele>30.0</ele><time>2026-03-29T13:49:09.448Z</time></trkpt><trkpt lat="44.1827827" lon="12.1284283"><ele>30.0</ele><time>2026-03-29T13:49:15.423Z</time></trkpt><trkpt lat="44.1827403" lon="12.1284947"><ele>30.0</ele><time>2026-03-29T13:49:20.309Z</time></trkpt><trkpt lat="44.1826909" lon="12.1285698"><ele>30.0</ele><time>2026-03-29T13:49:25.389Z</time></trkpt><trkpt lat="44.1826521" lon="12.1286495"><ele>30.0</ele><time>2026-03-29T13:49:30.358Z</time></trkpt><trkpt lat="44.1826075" lon="12.1287213"><ele>30.0</ele><time>2026-03-29T13:49:35.438Z</time></trkpt><trkpt lat="44.1825721" lon="12.1288011"><ele>30.0</ele><time>2026-03-29T13:49:40.417Z</time></trkpt><trkpt lat="44.1825366" lon="12.1288806"><ele>30.0</ele><time>2026-03-29T13:49:46.412Z</time></trkpt><trkpt lat="44.1824961" lon="12.1289647"><ele>30.0</ele><time>2026-03-29T13:49:53.447Z</time></trkpt><trkpt lat="44.1824627" lon="12.1290419"><ele>30.0</ele><time>2026-03-29T13:49:58.401Z</time></trkpt><trkpt lat="44.1824252" lon="12.1291273"><ele>30.0</ele><time>2026-03-29T13:50:03.379Z</time></trkpt><trkpt lat="44.182429" lon="12.1292268"><ele>30.0</ele><time>2026-03-29T13:50:10.39Z</time></trkpt><trkpt lat="44.1824644" lon="12.129315"><ele>30.0</ele><time>2026-03-29T13:50:15.269Z</time></trkpt><trkpt lat="44.1825101" lon="12.1293998"><ele>30.0</ele><time>2026-03-29T13:50:19.433Z</time></trkpt><trkpt lat="44.1825696" lon="12.1294572"><ele>30.0</ele><time>2026-03-29T13:50:25.428Z</time></trkpt><trkpt lat="44.1826371" lon="12.1294953"><ele>30.0</ele><time>2026-03-29T13:50:31.422Z</time></trkpt><trkpt lat="44.1826987" lon="12.1295457"><ele>30.0</ele><time>2026-03-29T13:50:37.417Z</time></trkpt><trkpt lat="44.1827598" lon="12.129583"><ele>30.0</ele><time>2026-03-29T13:50:43.411Z</time></trkpt><trkpt lat="44.182824" lon="12.1296157"><ele>30.0</ele><time>2026-03-29T13:50:49.406Z</time></trkpt><trkpt lat="44.1828885" lon="12.1296534"><ele>30.0</ele><time>2026-03-29T13:50:54.384Z</time></trkpt><trkpt lat="44.1829544" lon="12.1296944"><ele>30.0</ele><time>2026-03-29T13:50:59.363Z</time></trkpt><trkpt lat="44.1830205" lon="12.1297277"><ele>30.0</ele><time>2026-03-29T13:51:05.409Z</time></trkpt><trkpt lat="44.1830834" lon="12.1297755"><ele>30.0</ele><time>2026-03-29T13:51:11.352Z</time></trkpt><trkpt lat="44.1831474" lon="12.1298127"><ele>30.0</ele><time>2026-03-29T13:51:16.433Z</time></trkpt><trkpt lat="44.1831931" lon="12.1298761"><ele>30.0</ele><time>2026-03-29T13:51:23.341Z</time></trkpt><trkpt lat="44.1831956" lon="12.1299702"><ele>29.857142857142858</ele><time>2026-03-29T13:51:33.4Z</time></trkpt><trkpt lat="44.1832237" lon="12.1300589"><ele>29.714285714285715</ele><time>2026-03-29T13:51:39.395Z</time></trkpt><trkpt lat="44.1832827" lon="12.1301279"><ele>29.571428571428573</ele><time>2026-03-29T13:51:44.373Z</time></trkpt><trkpt lat="44.1833335" lon="12.1301951"><ele>29.42857142857143</ele><time>2026-03-29T13:51:49.352Z</time></trkpt><trkpt lat="44.1833884" lon="12.1302456"><ele>29.285714285714285</ele><time>2026-03-29T13:51:54.432Z</time></trkpt><trkpt lat="44.1834528" lon="12.1302907"><ele>29.142857142857146</ele><time>2026-03-29T13:52:00.405Z</time></trkpt><trkpt lat="44.183515" lon="12.130328"><ele>29.000000000000004</ele><time>2026-03-29T13:52:05.406Z</time></trkpt><trkpt lat="44.1835832" lon="12.1303743"><ele>29.000000000000004</ele><time>2026-03-29T13:52:10.384Z</time></trkpt><trkpt lat="44.183641" lon="12.1304094"><ele>29.0</ele><time>2026-03-29T13:52:15.362Z</time></trkpt><trkpt lat="44.1837145" lon="12.1304353"><ele>29.000000000000004</ele><time>2026-03-29T13:52:21.357Z</time></trkpt><trkpt lat="44.1837774" lon="12.1304596"><ele>29.000000000000004</ele><time>2026-03-29T13:52:25.422Z</time></trkpt><trkpt lat="44.183852" lon="12.130477"><ele>29.0</ele><time>2026-03-29T13:52:31.416Z</time></trkpt><trkpt lat="44.1839169" lon="12.1304862"><ele>29.000000000000004</ele><time>2026-03-29T13:52:37.389Z</time></trkpt><trkpt lat="44.1839816" lon="12.1304951"><ele>29.000000000000004</ele><time>2026-03-29T13:52:42.389Z</time></trkpt><trkpt lat="44.1840536" lon="12.1305073"><ele>29.285714285714292</ele><time>2026-03-29T13:52:48.383Z</time></trkpt><trkpt lat="44.1841203" lon="12.1305289"><ele>29.571428571428573</ele><time>2026-03-29T13:52:54.366Z</time></trkpt><trkpt lat="44.1841855" lon="12.130554"><ele>29.85714285714286</ele><time>2026-03-29T13:53:00.373Z</time></trkpt><trkpt lat="44.1842572" lon="12.13058"><ele>30.142857142857146</ele><time>2026-03-29T13:53:06.345Z</time></trkpt><trkpt lat="44.1843202" lon="12.1306041"><ele>30.42857142857143</ele><time>2026-03-29T13:53:11.346Z</time></trkpt><trkpt lat="44.1843812" lon="12.1306458"><ele>30.714285714285715</ele><time>2026-03-29T13:53:16.426Z</time></trkpt><trkpt lat="44.1844426" lon="12.1306801"><ele>31.0</ele><time>2026-03-29T13:53:22.319Z</time></trkpt><trkpt lat="44.1845021" lon="12.1307397"><ele>31.000000000000004</ele><time>2026-03-29T13:53:29.431Z</time></trkpt><trkpt lat="44.1845638" lon="12.1307769"><ele>31.0</ele><time>2026-03-29T13:53:35.426Z</time></trkpt><trkpt lat="44.1846241" lon="12.1307396"><ele>31.0</ele><time>2026-03-29T13:53:49.345Z</time></trkpt><trkpt lat="44.18465" lon="12.1306558"><ele>31.0</ele><time>2026-03-29T13:53:54.324Z</time></trkpt><trkpt lat="44.1846748" lon="12.130573"><ele>31.000000000000004</ele><time>2026-03-29T13:53:58.388Z</time></trkpt><trkpt lat="44.1846896" lon="12.1303932"><ele>31.0</ele><time>2026-03-29T13:54:28.348Z</time></trkpt><trkpt lat="44.1847169" lon="12.1302972"><ele>31.0</ele><time>2026-03-29T13:54:34.355Z</time></trkpt><trkpt lat="44.1847325" lon="12.1302018"><ele>31.000000000000004</ele><time>2026-03-29T13:54:39.347Z</time></trkpt><trkpt lat="44.1847547" lon="12.1301149"><ele>31.0</ele><time>2026-03-29T13:54:45.338Z</time></trkpt><trkpt lat="44.184777" lon="12.1300251"><ele>31.0</ele><time>2026-03-29T13:54:51.425Z</time></trkpt><trkpt lat="44.1848053" lon="12.1299402"><ele>31.000000000000004</ele><time>2026-03-29T13:54:56.365Z</time></trkpt><trkpt lat="44.1848376" lon="12.1298569"><ele>31.0</ele><time>2026-03-29T13:55:02.399Z</time></trkpt><trkpt lat="44.1848661" lon="12.1297612"><ele>31.0</ele><time>2026-03-29T13:55:08.393Z</time></trkpt><trkpt lat="44.184893" lon="12.1296655"><ele>30.666666666666668</ele><time>2026-03-29T13:55:13.866Z</time></trkpt><trkpt lat="44.184931" lon="12.1295871"><ele>30.333333333333336</ele><time>2026-03-29T13:55:22.414Z</time></trkpt><trkpt lat="44.1849421" lon="12.1295003"><ele>30.0</ele><time>2026-03-29T13:55:29.426Z</time></trkpt><trkpt lat="44.1849589" lon="12.1294086"><ele>29.666666666666664</ele><time>2026-03-29T13:55:35.419Z</time></trkpt><trkpt lat="44.184996" lon="12.1293314"><ele>29.333333333333332</ele><time>2026-03-29T13:55:39.382Z</time></trkpt><trkpt lat="44.1850765" lon="12.1291982"><ele>29.0</ele><time>2026-03-29T13:56:09.355Z</time></trkpt><trkpt lat="44.1851057" lon="12.1291169"><ele>29.285714285714292</ele><time>2026-03-29T13:56:13.42Z</time></trkpt><trkpt lat="44.1851494" lon="12.1290466"><ele>29.571428571428573</ele><time>2026-03-29T13:56:18.385Z</time></trkpt><trkpt lat="44.1851894" lon="12.1289718"><ele>29.85714285714286</ele><time>2026-03-29T13:56:23.377Z</time></trkpt><trkpt lat="44.1852214" lon="12.1288864"><ele>30.142857142857146</ele><time>2026-03-29T13:56:28.356Z</time></trkpt><trkpt lat="44.1852493" lon="12.1288036"><ele>30.42857142857143</ele><time>2026-03-29T13:56:33.389Z</time></trkpt><trkpt lat="44.1852844" lon="12.128722"><ele>30.714285714285715</ele><time>2026-03-29T13:56:40.345Z</time></trkpt><trkpt lat="44.1853024" lon="12.128622"><ele>31.0</ele><time>2026-03-29T13:56:46.34Z</time></trkpt><trkpt lat="44.1853182" lon="12.1285302"><ele>31.0</ele><time>2026-03-29T13:56:51.42Z</time></trkpt><trkpt lat="44.1853385" lon="12.128432"><ele>31.000000000000004</ele><time>2026-03-29T13:56:57.415Z</time></trkpt><trkpt lat="44.1853649" lon="12.1283474"><ele>31.0</ele><time>2026-03-29T13:57:02.326Z</time></trkpt><trkpt lat="44.1853921" lon="12.1282644"><ele>31.0</ele><time>2026-03-29T13:57:07.426Z</time></trkpt><trkpt lat="44.1854236" lon="12.1281744"><ele>31.000000000000004</ele><time>2026-03-29T13:57:13.367Z</time></trkpt><trkpt lat="44.1854439" lon="12.1280913"><ele>31.0</ele><time>2026-03-29T13:57:19.361Z</time></trkpt><trkpt lat="44.1854577" lon="12.1279939"><ele>31.0</ele><time>2026-03-29T13:57:25.248Z</time></trkpt><trkpt lat="44.1854816" lon="12.1278999"><ele>31.142857142857146</ele><time>2026-03-29T13:57:32.367Z</time></trkpt><trkpt lat="44.1855168" lon="12.1278244"><ele>31.28571428571429</ele><time>2026-03-29T13:57:38.286Z</time></trkpt><trkpt lat="44.1855585" lon="12.12775"><ele>31.42857142857143</ele><time>2026-03-29T13:57:44.445Z</time></trkpt><trkpt lat="44.1855846" lon="12.1276626"><ele>31.57142857142857</ele><time>2026-03-29T13:57:58.276Z</time></trkpt><trkpt lat="44.1856181" lon="12.1275542"><ele>31.71428571428571</ele><time>2026-03-29T13:58:05.389Z</time></trkpt><trkpt lat="44.1856597" lon="12.1274729"><ele>31.857142857142854</ele><time>2026-03-29T13:58:09.351Z</time></trkpt><trkpt lat="44.1857238" lon="12.1274423"><ele>32.0</ele><time>2026-03-29T13:58:16.362Z</time></trkpt><trkpt lat="44.1857908" lon="12.1274351"><ele>32.166666666666664</ele><time>2026-03-29T13:58:23.373Z</time></trkpt><trkpt lat="44.1858511" lon="12.12748"><ele>32.33333333333333</ele><time>2026-03-29T13:58:30.385Z</time></trkpt><trkpt lat="44.1859148" lon="12.1275513"><ele>32.5</ele><time>2026-03-29T13:58:37.395Z</time></trkpt><trkpt lat="44.1860004" lon="12.1276652"><ele>32.666666666666664</ele><time>2026-03-29T13:58:50.4Z</time></trkpt><trkpt lat="44.186056" lon="12.1277297"><ele>32.833333333333336</ele><time>2026-03-29T13:58:55.38Z</time></trkpt><trkpt lat="44.1861081" lon="12.1277829"><ele>33.0</ele><time>2026-03-29T13:59:01.408Z</time></trkpt><trkpt lat="44.1861621" lon="12.1278435"><ele>33.0</ele><time>2026-03-29T13:59:06.352Z</time></trkpt><trkpt lat="44.1862217" lon="12.1278985"><ele>33.0</ele><time>2026-03-29T13:59:11.434Z</time></trkpt><trkpt lat="44.1862855" lon="12.1279382"><ele>33.0</ele><time>2026-03-29T13:59:16.411Z</time></trkpt><trkpt lat="44.1863515" lon="12.1279842"><ele>33.0</ele><time>2026-03-29T13:59:22.367Z</time></trkpt><trkpt lat="44.1864183" lon="12.1280296"><ele>33.0</ele><time>2026-03-29T13:59:28.401Z</time></trkpt><trkpt lat="44.1864898" lon="12.128067"><ele>33.0</ele><time>2026-03-29T13:59:33.38Z</time></trkpt><trkpt lat="44.1865499" lon="12.1281067"><ele>33.0</ele><time>2026-03-29T13:59:38.251Z</time></trkpt><trkpt lat="44.1866128" lon="12.1281501"><ele>32.857142857142854</ele><time>2026-03-29T13:59:43.337Z</time></trkpt><trkpt lat="44.1866735" lon="12.1281925"><ele>32.714285714285715</ele><time>2026-03-29T13:59:50.449Z</time></trkpt><trkpt lat="44.1867384" lon="12.1282304"><ele>32.57142857142857</ele><time>2026-03-29T13:59:55.428Z</time></trkpt><trkpt lat="44.1868078" lon="12.1282728"><ele>32.42857142857143</ele><time>2026-03-29T14:00:01.424Z</time></trkpt><trkpt lat="44.1868731" lon="12.1283087"><ele>32.285714285714285</ele><time>2026-03-29T14:00:07.417Z</time></trkpt><trkpt lat="44.1869345" lon="12.1283424"><ele>32.14285714285714</ele><time>2026-03-29T14:00:15.343Z</time></trkpt><trkpt lat="44.1870075" lon="12.128363"><ele>32.0</ele><time>2026-03-29T14:00:30.366Z</time></trkpt><trkpt lat="44.1870857" lon="12.1283232"><ele>32.0</ele><time>2026-03-29T14:00:34.344Z</time></trkpt><trkpt lat="44.1871534" lon="12.1282728"><ele>31.999999999999996</ele><time>2026-03-29T14:00:38.407Z</time></trkpt><trkpt lat="44.1871868" lon="12.1281926"><ele>32.0</ele><time>2026-03-29T14:00:41.354Z</time></trkpt><trkpt lat="44.1872252" lon="12.1281022"><ele>32.0</ele><time>2026-03-29T14:00:45.418Z</time></trkpt><trkpt lat="44.1872349" lon="12.1280088"><ele>31.999999999999996</ele><time>2026-03-29T14:00:49.381Z</time></trkpt><trkpt lat="44.1872612" lon="12.127906"><ele>32.0</ele><time>2026-03-29T14:00:54.359Z</time></trkpt><trkpt lat="44.1872887" lon="12.127824"><ele>32.0</ele><time>2026-03-29T14:01:00.354Z</time></trkpt><trkpt lat="44.1873006" lon="12.1277366"><ele>32.0</ele><time>2026-03-29T14:01:07.389Z</time></trkpt><trkpt lat="44.1873201" lon="12.1276507"><ele>31.999999999999996</ele><time>2026-03-29T14:01:13.245Z</time></trkpt><trkpt lat="44.1873481" lon="12.1275518"><ele>32.0</ele><time>2026-03-29T14:01:19.354Z</time></trkpt><trkpt lat="44.1874044" lon="12.127489"><ele>32.0</ele><time>2026-03-29T14:01:25.446Z</time></trkpt><trkpt lat="44.1874578" lon="12.1274404"><ele>31.999999999999996</ele><time>2026-03-29T14:01:33.427Z</time></trkpt><trkpt lat="44.1874808" lon="12.1273451"><ele>32.0</ele><time>2026-03-29T14:01:41.403Z</time></trkpt><trkpt lat="44.1874873" lon="12.1272558"><ele>32.0</ele><time>2026-03-29T14:01:48.332Z</time></trkpt><trkpt lat="44.1875225" lon="12.1271665"><ele>32.0</ele><time>2026-03-29T14:01:54.387Z</time></trkpt><trkpt lat="44.1875545" lon="12.1270829"><ele>31.999999999999996</ele><time>2026-03-29T14:02:00.448Z</time></trkpt><trkpt lat="44.1875736" lon="12.1269948"><ele>32.0</ele><time>2026-03-29T14:02:07.413Z</time></trkpt><trkpt lat="44.1875961" lon="12.1269091"><ele>32.0</ele><time>2026-03-29T14:02:13.409Z</time></trkpt><trkpt lat="44.1875993" lon="12.1268086"><ele>31.999999999999996</ele><time>2026-03-29T14:02:18.387Z</time></trkpt><trkpt lat="44.1875847" lon="12.1266991"><ele>32.0</ele><time>2026-03-29T14:02:23.309Z</time></trkpt><trkpt lat="44.187588" lon="12.126611"><ele>32.0</ele><time>2026-03-29T14:02:28.344Z</time></trkpt><trkpt lat="44.1876064" lon="12.1265214"><ele>32.0</ele><time>2026-03-29T14:02:35.356Z</time></trkpt><trkpt lat="44.1876649" lon="12.1264823"><ele>31.999999999999996</ele><time>2026-03-29T14:02:42.326Z</time></trkpt><trkpt lat="44.1877286" lon="12.1265012"><ele>32.0</ele><time>2026-03-29T14:02:56.387Z</time></trkpt><trkpt lat="44.1877891" lon="12.126536"><ele>32.0</ele><time>2026-03-29T14:03:04.414Z</time></trkpt><trkpt lat="44.1878936" lon="12.1265318"><ele>31.999999999999996</ele><time>2026-03-29T14:03:34.388Z</time></trkpt><trkpt lat="44.1879549" lon="12.1265543"><ele>32.0</ele><time>2026-03-29T14:03:41.398Z</time></trkpt><trkpt lat="44.1880229" lon="12.1265702"><ele>32.0</ele><time>2026-03-29T14:03:52.392Z</time></trkpt><trkpt lat="44.1880962" lon="12.1265986"><ele>32.0</ele><time>2026-03-29T14:03:59.428Z</time></trkpt><trkpt lat="44.1881598" lon="12.1265875"><ele>31.999999999999996</ele><time>2026-03-29T14:04:03.447Z</time></trkpt><trkpt lat="44.1882341" lon="12.1265927"><ele>32.0</ele><time>2026-03-29T14:04:08.425Z</time></trkpt><trkpt lat="44.1883077" lon="12.126613"><ele>32.0</ele><time>2026-03-29T14:04:13.405Z</time></trkpt><trkpt lat="44.188383" lon="12.1266334"><ele>31.999999999999996</ele><time>2026-03-29T14:04:19.399Z</time></trkpt><trkpt lat="44.1884442" lon="12.1266551"><ele>32.0</ele><time>2026-03-29T14:04:24.268Z</time></trkpt><trkpt lat="44.188508" lon="12.126679"><ele>32.0</ele><time>2026-03-29T14:04:30.373Z</time></trkpt><trkpt lat="44.1885776" lon="12.1266956"><ele>32.0</ele><time>2026-03-29T14:04:36.367Z</time></trkpt><trkpt lat="44.1886485" lon="12.1267069"><ele>31.999999999999996</ele><time>2026-03-29T14:04:41.345Z</time></trkpt><trkpt lat="44.1887223" lon="12.1267167"><ele>32.0</ele><time>2026-03-29T14:04:47.34Z</time></trkpt><trkpt lat="44.1887873" lon="12.1267422"><ele>32.0</ele><time>2026-03-29T14:04:53.436Z</time></trkpt><trkpt lat="44.1888537" lon="12.126766"><ele>31.999999999999996</ele><time>2026-03-29T14:05:00.345Z</time></trkpt><trkpt lat="44.1889185" lon="12.1267694"><ele>32.0</ele><time>2026-03-29T14:05:06.34Z</time></trkpt><trkpt lat="44.1889872" lon="12.1267744"><ele>32.0</ele><time>2026-03-29T14:05:24.427Z</time></trkpt><trkpt lat="44.1890597" lon="12.1267993"><ele>32.0</ele><time>2026-03-29T14:05:29.388Z</time></trkpt><trkpt lat="44.1891269" lon="12.1268219"><ele>31.999999999999996</ele><time>2026-03-29T14:05:35.399Z</time></trkpt><trkpt lat="44.1891909" lon="12.1268518"><ele>32.0</ele><time>2026-03-29T14:05:41.394Z</time></trkpt><trkpt lat="44.1892559" lon="12.1268773"><ele>32.0</ele><time>2026-03-29T14:05:48.404Z</time></trkpt><trkpt lat="44.1893257" lon="12.1268987"><ele>31.999999999999996</ele><time>2026-03-29T14:05:53.383Z</time></trkpt><trkpt lat="44.1893879" lon="12.1269172"><ele>32.0</ele><time>2026-03-29T14:05:58.446Z</time></trkpt><trkpt lat="44.1894561" lon="12.1269261"><ele>32.0</ele><time>2026-03-29T14:06:09.449Z</time></trkpt><trkpt lat="44.1895208" lon="12.1269393"><ele>32.0</ele><time>2026-03-29T14:06:15.432Z</time></trkpt><trkpt lat="44.1895853" lon="12.1269609"><ele>31.999999999999996</ele><time>2026-03-29T14:06:20.971Z</time></trkpt><trkpt lat="44.189649" lon="12.1269807"><ele>32.0</ele><time>2026-03-29T14:06:25.388Z</time></trkpt><trkpt lat="44.1897148" lon="12.1269853"><ele>32.0</ele><time>2026-03-29T14:06:33.415Z</time></trkpt><trkpt lat="44.1897619" lon="12.1270685"><ele>31.999999999999996</ele><time>2026-03-29T14:06:39.41Z</time></trkpt><trkpt lat="44.1897672" lon="12.1271759"><ele>32.0</ele><time>2026-03-29T14:06:43.373Z</time></trkpt><trkpt lat="44.1897705" lon="12.1272801"><ele>32.0</ele><time>2026-03-29T14:06:47.338Z</time></trkpt><trkpt lat="44.1897669" lon="12.1273792"><ele>32.0</ele><time>2026-03-29T14:06:52.308Z</time></trkpt><trkpt lat="44.1897689" lon="12.1274811"><ele>31.999999999999996</ele><time>2026-03-29T14:06:57.406Z</time></trkpt><trkpt lat="44.1897699" lon="12.1275831"><ele>32.0</ele><time>2026-03-29T14:07:03.388Z</time></trkpt><trkpt lat="44.1897692" lon="12.1276743"><ele>32.0</ele><time>2026-03-29T14:07:09.327Z</time></trkpt><trkpt lat="44.1897661" lon="12.1277793"><ele>31.999999999999996</ele><time>2026-03-29T14:07:14.447Z</time></trkpt><trkpt lat="44.1897609" lon="12.1278702"><ele>32.0</ele><time>2026-03-29T14:07:19.34Z</time></trkpt><trkpt lat="44.1897445" lon="12.1279724"><ele>32.0</ele><time>2026-03-29T14:07:25.338Z</time></trkpt><trkpt lat="44.189696" lon="12.1280531"><ele>32.0</ele><time>2026-03-29T14:07:30.385Z</time></trkpt><trkpt lat="44.1896423" lon="12.1281169"><ele>31.999999999999996</ele><time>2026-03-29T14:07:35.449Z</time></trkpt><trkpt lat="44.1895837" lon="12.1281605"><ele>32.0</ele><time>2026-03-29T14:07:41.389Z</time></trkpt><trkpt lat="44.1895205" lon="12.1282062"><ele>32.0</ele><time>2026-03-29T14:07:49.416Z</time></trkpt><trkpt lat="44.1894582" lon="12.1282501"><ele>31.999999999999996</ele><time>2026-03-29T14:07:55.41Z</time></trkpt><trkpt lat="44.1893974" lon="12.128286"><ele>32.0</ele><time>2026-03-29T14:08:00.388Z</time></trkpt><trkpt lat="44.1893263" lon="12.1283252"><ele>32.0</ele><time>2026-03-29T14:08:05.367Z</time></trkpt><trkpt lat="44.1892539" lon="12.1283584"><ele>31.857142857142854</ele><time>2026-03-29T14:08:10.345Z</time></trkpt><trkpt lat="44.1891833" lon="12.1283957"><ele>31.71428571428571</ele><time>2026-03-29T14:08:15.425Z</time></trkpt><trkpt lat="44.1891178" lon="12.1284195"><ele>31.57142857142857</ele><time>2026-03-29T14:08:20.306Z</time></trkpt><trkpt lat="44.1890505" lon="12.1284432"><ele>31.42857142857143</ele><time>2026-03-29T14:08:25.446Z</time></trkpt><trkpt lat="44.1889775" lon="12.1284675"><ele>31.28571428571429</ele><time>2026-03-29T14:08:31.377Z</time></trkpt><trkpt lat="44.1889129" lon="12.1284535"><ele>31.142857142857146</ele><time>2026-03-29T14:08:36.356Z</time></trkpt><trkpt lat="44.188885" lon="12.1283631"><ele>31.0</ele><time>2026-03-29T14:08:43.367Z</time></trkpt><trkpt lat="44.1888367" lon="12.1282978"><ele>31.0</ele><time>2026-03-29T14:08:51.394Z</time></trkpt><trkpt lat="44.1887682" lon="12.1282873"><ele>31.000000000000004</ele><time>2026-03-29T14:09:01.326Z</time></trkpt><trkpt lat="44.1886926" lon="12.1282788"><ele>31.0</ele><time>2026-03-29T14:09:08.361Z</time></trkpt><trkpt lat="44.1886146" lon="12.1282792"><ele>31.0</ele><time>2026-03-29T14:09:13.34Z</time></trkpt><trkpt lat="44.1885482" lon="12.1282806"><ele>31.000000000000004</ele><time>2026-03-29T14:09:17.288Z</time></trkpt><trkpt lat="44.1884851" lon="12.1282798"><ele>31.0</ele><time>2026-03-29T14:09:21.366Z</time></trkpt><trkpt lat="44.1884211" lon="12.1282719"><ele>31.0</ele><time>2026-03-29T14:09:25.431Z</time></trkpt><trkpt lat="44.1883561" lon="12.1282648"><ele>31.000000000000004</ele><time>2026-03-29T14:09:30.368Z</time></trkpt><trkpt lat="44.1882873" lon="12.1282726"><ele>31.0</ele><time>2026-03-29T14:09:35.388Z</time></trkpt><trkpt lat="44.188221" lon="12.1283031"><ele>31.0</ele><time>2026-03-29T14:09:40.366Z</time></trkpt><trkpt lat="44.1881244" lon="12.1283812"><ele>31.0</ele><time>2026-03-29T14:10:01.399Z</time></trkpt><trkpt lat="44.1880386" lon="12.1283973"><ele>31.000000000000004</ele><time>2026-03-29T14:10:06.377Z</time></trkpt><trkpt lat="44.1879745" lon="12.1284105"><ele>31.0</ele><time>2026-03-29T14:10:10.325Z</time></trkpt><trkpt lat="44.1879116" lon="12.128421"><ele>31.142857142857146</ele><time>2026-03-29T14:10:15.419Z</time></trkpt><trkpt lat="44.187837" lon="12.1284213"><ele>31.28571428571429</ele><time>2026-03-29T14:10:46.408Z</time></trkpt><trkpt lat="44.1877704" lon="12.1283851"><ele>31.42857142857143</ele><time>2026-03-29T14:10:50.39Z</time></trkpt><trkpt lat="44.1877168" lon="12.1283374"><ele>31.57142857142857</ele><time>2026-03-29T14:10:56.366Z</time></trkpt><trkpt lat="44.187656" lon="12.1283798"><ele>31.71428571428571</ele><time>2026-03-29T14:11:02.288Z</time></trkpt><trkpt lat="44.1875914" lon="12.1284199"><ele>31.857142857142854</ele><time>2026-03-29T14:11:08.355Z</time></trkpt><trkpt lat="44.1875275" lon="12.1284239"><ele>32.0</ele><time>2026-03-29T14:11:14.35Z</time></trkpt><trkpt lat="44.1874587" lon="12.1284387"><ele>32.0</ele><time>2026-03-29T14:11:22.376Z</time></trkpt><trkpt lat="44.187382" lon="12.1284174"><ele>31.999999999999996</ele><time>2026-03-29T14:11:31.326Z</time></trkpt><trkpt lat="44.187317" lon="12.1283829"><ele>32.0</ele><time>2026-03-29T14:11:37.414Z</time></trkpt><trkpt lat="44.1872446" lon="12.1283491"><ele>32.0</ele><time>2026-03-29T14:11:43.409Z</time></trkpt><trkpt lat="44.1871794" lon="12.1283165"><ele>31.999999999999996</ele><time>2026-03-29T14:11:49.948Z</time></trkpt><trkpt lat="44.1871059" lon="12.1282945"><ele>32.0</ele><time>2026-03-29T14:11:56.414Z</time></trkpt><trkpt lat="44.1870396" lon="12.1282661"><ele>32.0</ele><time>2026-03-29T14:12:02.41Z</time></trkpt><trkpt lat="44.1869727" lon="12.1282434"><ele>32.0</ele><time>2026-03-29T14:12:07.408Z</time></trkpt><trkpt lat="44.1869124" lon="12.1282148"><ele>31.999999999999996</ele><time>2026-03-29T14:12:12.409Z</time></trkpt><trkpt lat="44.1868438" lon="12.128171"><ele>32.0</ele><time>2026-03-29T14:12:18.361Z</time></trkpt><trkpt lat="44.1867841" lon="12.1281329"><ele>32.0</ele><time>2026-03-29T14:12:22.425Z</time></trkpt><trkpt lat="44.1867254" lon="12.1281009"><ele>31.999999999999996</ele><time>2026-03-29T14:12:26.425Z</time></trkpt><trkpt lat="44.1866592" lon="12.1280636"><ele>32.0</ele><time>2026-03-29T14:12:31.366Z</time></trkpt><trkpt lat="44.1865874" lon="12.1280285"><ele>32.0</ele><time>2026-03-29T14:12:36.346Z</time></trkpt><trkpt lat="44.1865209" lon="12.1280037"><ele>32.14285714285714</ele><time>2026-03-29T14:12:41.366Z</time></trkpt><trkpt lat="44.1864662" lon="12.127959"><ele>32.285714285714285</ele><time>2026-03-29T14:12:47.419Z</time></trkpt><trkpt lat="44.1864067" lon="12.1279119"><ele>32.42857142857143</ele><time>2026-03-29T14:12:52.398Z</time></trkpt><trkpt lat="44.1863479" lon="12.1278667"><ele>32.57142857142857</ele><time>2026-03-29T14:12:57.368Z</time></trkpt><trkpt lat="44.1862914" lon="12.1278224"><ele>32.714285714285715</ele><time>2026-03-29T14:13:03.371Z</time></trkpt><trkpt lat="44.186219" lon="12.1277802"><ele>32.857142857142854</ele><time>2026-03-29T14:13:10.408Z</time></trkpt><trkpt lat="44.1861664" lon="12.1277244"><ele>33.0</ele><time>2026-03-29T14:13:14.388Z</time></trkpt><trkpt lat="44.1861192" lon="12.1276651"><ele>33.0</ele><time>2026-03-29T14:13:18.345Z</time></trkpt><trkpt lat="44.1860646" lon="12.1275957"><ele>33.0</ele><time>2026-03-29T14:13:24.404Z</time></trkpt><trkpt lat="44.1860104" lon="12.1275371"><ele>33.0</ele><time>2026-03-29T14:13:29.382Z</time></trkpt><trkpt lat="44.1859742" lon="12.1274429"><ele>33.0</ele><time>2026-03-29T14:13:35.377Z</time></trkpt><trkpt lat="44.1859594" lon="12.127351"><ele>33.0</ele><time>2026-03-29T14:13:39.441Z</time></trkpt><trkpt lat="44.1859297" lon="12.1272577"><ele>33.0</ele><time>2026-03-29T14:13:44.42Z</time></trkpt><trkpt lat="44.1859172" lon="12.1271708"><ele>33.0</ele><time>2026-03-29T14:13:49.398Z</time></trkpt><trkpt lat="44.1859033" lon="12.1270764"><ele>33.0</ele><time>2026-03-29T14:13:55.388Z</time></trkpt><trkpt lat="44.1859374" lon="12.1269933"><ele>33.0</ele><time>2026-03-29T14:14:12.289Z</time></trkpt><trkpt lat="44.1859891" lon="12.126935"><ele>33.0</ele><time>2026-03-29T14:14:18.356Z</time></trkpt><trkpt lat="44.1860468" lon="12.1268851"><ele>33.0</ele><time>2026-03-29T14:14:25.387Z</time></trkpt><trkpt lat="44.1861069" lon="12.1268336"><ele>33.0</ele><time>2026-03-29T14:14:31.361Z</time></trkpt><trkpt lat="44.1861675" lon="12.1267858"><ele>33.0</ele><time>2026-03-29T14:14:37.357Z</time></trkpt><trkpt lat="44.1862616" lon="12.1267282"><ele>33.0</ele><time>2026-03-29T14:15:02.351Z</time></trkpt><trkpt lat="44.1863368" lon="12.1266349"><ele>33.0</ele><time>2026-03-29T14:15:31.411Z</time></trkpt><trkpt lat="44.1863844" lon="12.1265757"><ele>33.0</ele><time>2026-03-29T14:15:37.405Z</time></trkpt><trkpt lat="44.1864542" lon="12.1265122"><ele>33.0</ele><time>2026-03-29T14:17:40.348Z</time></trkpt><trkpt lat="44.186493" lon="12.126434"><ele>33.0</ele><time>2026-03-29T14:17:47.266Z</time></trkpt><trkpt lat="44.1865404" lon="12.1263597"><ele>33.0</ele><time>2026-03-29T14:17:53.265Z</time></trkpt><trkpt lat="44.1865777" lon="12.126288"><ele>33.0</ele><time>2026-03-29T14:17:59.349Z</time></trkpt><trkpt lat="44.1866185" lon="12.1262059"><ele>33.0</ele><time>2026-03-29T14:18:06.448Z</time></trkpt><trkpt lat="44.1866566" lon="12.1261201"><ele>32.714285714285715</ele><time>2026-03-29T14:18:12.355Z</time></trkpt><trkpt lat="44.1866656" lon="12.1260113"><ele>32.42857142857143</ele><time>2026-03-29T14:18:17.404Z</time></trkpt><trkpt lat="44.1866374" lon="12.1259013"><ele>32.142857142857146</ele><time>2026-03-29T14:18:36.435Z</time></trkpt><trkpt lat="44.1866343" lon="12.1258129"><ele>31.857142857142858</ele><time>2026-03-29T14:18:41.414Z</time></trkpt><trkpt lat="44.1866674" lon="12.1257229"><ele>31.571428571428577</ele><time>2026-03-29T14:18:46.393Z</time></trkpt><trkpt lat="44.1866619" lon="12.1256327"><ele>31.28571428571429</ele><time>2026-03-29T14:18:53.289Z</time></trkpt><trkpt lat="44.186669" lon="12.1255429"><ele>31.0</ele><time>2026-03-29T14:19:00.31Z</time></trkpt><trkpt lat="44.186682" lon="12.1254492"><ele>31.0</ele><time>2026-03-29T14:19:07.425Z</time></trkpt><trkpt lat="44.1867198" lon="12.1253609"><ele>31.000000000000004</ele><time>2026-03-29T14:19:12.348Z</time></trkpt><trkpt lat="44.1867432" lon="12.1252733"><ele>31.0</ele><time>2026-03-29T14:19:19.416Z</time></trkpt><trkpt lat="44.1867445" lon="12.1251789"><ele>31.0</ele><time>2026-03-29T14:19:25.409Z</time></trkpt><trkpt lat="44.1867549" lon="12.1250855"><ele>31.000000000000004</ele><time>2026-03-29T14:19:30.388Z</time></trkpt><trkpt lat="44.1867747" lon="12.1249918"><ele>31.0</ele><time>2026-03-29T14:19:36.383Z</time></trkpt><trkpt lat="44.186803" lon="12.1249112"><ele>31.0</ele><time>2026-03-29T14:19:41.306Z</time></trkpt><trkpt lat="44.1868645" lon="12.1247585"><ele>30.857142857142858</ele><time>2026-03-29T14:20:01.378Z</time></trkpt><trkpt lat="44.1868874" lon="12.1246717"><ele>30.714285714285715</ele><time>2026-03-29T14:20:09.405Z</time></trkpt><trkpt lat="44.1869157" lon="12.1245885"><ele>30.571428571428573</ele><time>2026-03-29T14:20:16.416Z</time></trkpt><trkpt lat="44.1869412" lon="12.1245078"><ele>30.42857142857143</ele><time>2026-03-29T14:20:22.411Z</time></trkpt><trkpt lat="44.1869599" lon="12.1244192"><ele>30.285714285714285</ele><time>2026-03-29T14:20:27.39Z</time></trkpt><trkpt lat="44.1869891" lon="12.1243399"><ele>30.142857142857146</ele><time>2026-03-29T14:20:33.311Z</time></trkpt><trkpt lat="44.1870351" lon="12.1242704"><ele>30.0</ele><time>2026-03-29T14:20:39.379Z</time></trkpt><trkpt lat="44.1870699" lon="12.1241941"><ele>30.0</ele><time>2026-03-29T14:20:44.768Z</time></trkpt><trkpt lat="44.1870922" lon="12.1241115"><ele>30.0</ele><time>2026-03-29T14:20:49.286Z</time></trkpt><trkpt lat="44.1871165" lon="12.1240148"><ele>30.0</ele><time>2026-03-29T14:20:54.387Z</time></trkpt><trkpt lat="44.1871507" lon="12.1239383"><ele>30.0</ele><time>2026-03-29T14:20:59.397Z</time></trkpt><trkpt lat="44.1871785" lon="12.123849"><ele>30.0</ele><time>2026-03-29T14:21:05.391Z</time></trkpt><trkpt lat="44.1872109" lon="12.1237669"><ele>30.0</ele><time>2026-03-29T14:21:10.389Z</time></trkpt><trkpt lat="44.1872369" lon="12.1236771"><ele>30.0</ele><time>2026-03-29T14:21:16.364Z</time></trkpt><trkpt lat="44.1872556" lon="12.1235891"><ele>30.0</ele><time>2026-03-29T14:21:21.368Z</time></trkpt><trkpt lat="44.1872886" lon="12.1234977"><ele>30.0</ele><time>2026-03-29T14:21:27.339Z</time></trkpt><trkpt lat="44.1873241" lon="12.1234185"><ele>30.0</ele><time>2026-03-29T14:21:32.419Z</time></trkpt><trkpt lat="44.1873432" lon="12.1233325"><ele>30.0</ele><time>2026-03-29T14:21:38.348Z</time></trkpt><trkpt lat="44.1873977" lon="12.1232486"><ele>30.0</ele><time>2026-03-29T14:21:44.409Z</time></trkpt><trkpt lat="44.1874395" lon="12.1231605"><ele>30.0</ele><time>2026-03-29T14:21:50.31Z</time></trkpt><trkpt lat="44.1874687" lon="12.1230744"><ele>30.0</ele><time>2026-03-29T14:21:55.407Z</time></trkpt><trkpt lat="44.1875075" lon="12.1229861"><ele>30.0</ele><time>2026-03-29T14:22:01.376Z</time></trkpt><trkpt lat="44.1875409" lon="12.1228911"><ele>30.0</ele><time>2026-03-29T14:22:07.449Z</time></trkpt><trkpt lat="44.1875609" lon="12.1228074"><ele>30.0</ele><time>2026-03-29T14:22:12.349Z</time></trkpt><trkpt lat="44.1875969" lon="12.1227149"><ele>30.0</ele><time>2026-03-29T14:22:19.36Z</time></trkpt><trkpt lat="44.1876202" lon="12.1226226"><ele>30.0</ele><time>2026-03-29T14:22:24.79Z</time></trkpt><trkpt lat="44.1875739" lon="12.1225572"><ele>30.0</ele><time>2026-03-29T14:22:34.398Z</time></trkpt><trkpt lat="44.1875208" lon="12.1224823"><ele>30.0</ele><time>2026-03-29T14:22:40.393Z</time></trkpt><trkpt lat="44.1874577" lon="12.1224609"><ele>30.0</ele><time>2026-03-29T14:22:50.346Z</time></trkpt><trkpt lat="44.1873955" lon="12.1224322"><ele>30.0</ele><time>2026-03-29T14:22:59.393Z</time></trkpt><trkpt lat="44.1873252" lon="12.1223938"><ele>30.0</ele><time>2026-03-29T14:23:05.388Z</time></trkpt><trkpt lat="44.1872606" lon="12.1223488"><ele>30.0</ele><time>2026-03-29T14:23:09.35Z</time></trkpt><trkpt lat="44.1871976" lon="12.1223223"><ele>30.0</ele><time>2026-03-29T14:23:15.346Z</time></trkpt><trkpt lat="44.1871359" lon="12.1222818"><ele>30.0</ele><time>2026-03-29T14:23:21.408Z</time></trkpt><trkpt lat="44.1870695" lon="12.1222598"><ele>30.0</ele><time>2026-03-29T14:23:27.334Z</time></trkpt><trkpt lat="44.1870136" lon="12.1222068"><ele>29.857142857142858</ele><time>2026-03-29T14:23:33.432Z</time></trkpt><trkpt lat="44.187026" lon="12.1221128"><ele>29.714285714285715</ele><time>2026-03-29T14:23:42.266Z</time></trkpt><trkpt lat="44.1870574" lon="12.1220151"><ele>29.571428571428573</ele><time>2026-03-29T14:23:48.426Z</time></trkpt><trkpt lat="44.1870927" lon="12.121922"><ele>29.42857142857143</ele><time>2026-03-29T14:23:53.529Z</time></trkpt><trkpt lat="44.1871195" lon="12.1218317"><ele>29.285714285714285</ele><time>2026-03-29T14:23:58.147Z</time></trkpt><trkpt lat="44.187116" lon="12.1217383"><ele>29.142857142857146</ele><time>2026-03-29T14:24:04.349Z</time></trkpt><trkpt lat="44.1870503" lon="12.1216947"><ele>29.000000000000004</ele><time>2026-03-29T14:24:13.362Z</time></trkpt><trkpt lat="44.1869845" lon="12.1216391"><ele>29.142857142857146</ele><time>2026-03-29T14:24:18.341Z</time></trkpt><trkpt lat="44.186946" lon="12.1215653"><ele>29.285714285714285</ele><time>2026-03-29T14:24:23.422Z</time></trkpt><trkpt lat="44.1869245" lon="12.1214779"><ele>29.42857142857143</ele><time>2026-03-29T14:24:28.329Z</time></trkpt><trkpt lat="44.1869281" lon="12.121377"><ele>29.571428571428573</ele><time>2026-03-29T14:24:33.379Z</time></trkpt><trkpt lat="44.186937" lon="12.1212877"><ele>29.714285714285715</ele><time>2026-03-29T14:24:41.405Z</time></trkpt><trkpt lat="44.186971" lon="12.1211972"><ele>29.857142857142858</ele><time>2026-03-29T14:24:49.449Z</time></trkpt><trkpt lat="44.186992" lon="12.1210976"><ele>30.0</ele><time>2026-03-29T14:24:55.185Z</time></trkpt><trkpt lat="44.1870059" lon="12.121003"><ele>30.0</ele><time>2026-03-29T14:25:00.347Z</time></trkpt><trkpt lat="44.1870199" lon="12.1209082"><ele>30.0</ele><time>2026-03-29T14:25:06.4Z</time></trkpt><trkpt lat="44.1870144" lon="12.1208044"><ele>30.0</ele><time>2026-03-29T14:25:14.427Z</time></trkpt><trkpt lat="44.1870118" lon="12.1206981"><ele>30.0</ele><time>2026-03-29T14:25:19.406Z</time></trkpt><trkpt lat="44.187003" lon="12.1206092"><ele>30.0</ele><time>2026-03-29T14:25:23.368Z</time></trkpt><trkpt lat="44.1869791" lon="12.1205081"><ele>30.0</ele><time>2026-03-29T14:25:28.451Z</time></trkpt><trkpt lat="44.1869757" lon="12.1204199"><ele>30.0</ele><time>2026-03-29T14:25:33.427Z</time></trkpt><trkpt lat="44.1869639" lon="12.1203235"><ele>29.857142857142858</ele><time>2026-03-29T14:25:39.422Z</time></trkpt><trkpt lat="44.1869577" lon="12.1202198"><ele>29.714285714285715</ele><time>2026-03-29T14:25:45.33Z</time></trkpt><trkpt lat="44.1869535" lon="12.1201249"><ele>29.571428571428573</ele><time>2026-03-29T14:25:50.395Z</time></trkpt><trkpt lat="44.1869436" lon="12.1200289"><ele>29.42857142857143</ele><time>2026-03-29T14:25:56.39Z</time></trkpt><trkpt lat="44.1869185" lon="12.1199289"><ele>29.285714285714285</ele><time>2026-03-29T14:26:11.327Z</time></trkpt><trkpt lat="44.186885" lon="12.1198385"><ele>29.142857142857146</ele><time>2026-03-29T14:26:16.406Z</time></trkpt><trkpt lat="44.1868506" lon="12.1197476"><ele>29.000000000000004</ele><time>2026-03-29T14:26:22.401Z</time></trkpt><trkpt lat="44.1868213" lon="12.1196536"><ele>29.000000000000004</ele><time>2026-03-29T14:26:29.347Z</time></trkpt><trkpt lat="44.1867884" lon="12.1195725"><ele>29.0</ele><time>2026-03-29T14:26:37.168Z</time></trkpt><trkpt lat="44.1867544" lon="12.1194961"><ele>29.000000000000004</ele><time>2026-03-29T14:26:41.401Z</time></trkpt><trkpt lat="44.1867183" lon="12.1194141"><ele>29.000000000000004</ele><time>2026-03-29T14:26:46.38Z</time></trkpt><trkpt lat="44.1866684" lon="12.1193332"><ele>29.0</ele><time>2026-03-29T14:26:51.36Z</time></trkpt><trkpt lat="44.1866213" lon="12.1192698"><ele>29.000000000000004</ele><time>2026-03-29T14:26:55.424Z</time></trkpt><trkpt lat="44.1865692" lon="12.11921"><ele>29.000000000000004</ele><time>2026-03-29T14:26:59.385Z</time></trkpt><trkpt lat="44.186507" lon="12.1191455"><ele>28.85714285714286</ele><time>2026-03-29T14:27:04.364Z</time></trkpt><trkpt lat="44.1864547" lon="12.1190923"><ele>28.714285714285715</ele><time>2026-03-29T14:27:09.343Z</time></trkpt><trkpt lat="44.186401" lon="12.1190258"><ele>28.571428571428573</ele><time>2026-03-29T14:27:15.347Z</time></trkpt><trkpt lat="44.1863736" lon="12.1189287"><ele>28.42857142857143</ele><time>2026-03-29T14:27:20.418Z</time></trkpt><trkpt lat="44.1863529" lon="12.1188376"><ele>28.285714285714285</ele><time>2026-03-29T14:27:26.412Z</time></trkpt><trkpt lat="44.1863322" lon="12.1187489"><ele>28.142857142857142</ele><time>2026-03-29T14:27:32.407Z</time></trkpt><trkpt lat="44.186312" lon="12.1186531"><ele>28.0</ele><time>2026-03-29T14:27:37.386Z</time></trkpt><trkpt lat="44.186312" lon="12.1185545"><ele>28.0</ele><time>2026-03-29T14:27:42.365Z</time></trkpt><trkpt lat="44.1863173" lon="12.1184637"><ele>28.0</ele><time>2026-03-29T14:27:47.343Z</time></trkpt><trkpt lat="44.1862897" lon="12.1183752"><ele>28.0</ele><time>2026-03-29T14:27:58.418Z</time></trkpt><trkpt lat="44.1862872" lon="12.118283"><ele>28.0</ele><time>2026-03-29T14:28:04.413Z</time></trkpt><trkpt lat="44.1862977" lon="12.1181962"><ele>28.0</ele><time>2026-03-29T14:28:09.393Z</time></trkpt><trkpt lat="44.186307" lon="12.1180974"><ele>28.0</ele><time>2026-03-29T14:28:15.386Z</time></trkpt><trkpt lat="44.1863223" lon="12.118011"><ele>28.0</ele><time>2026-03-29T14:28:21.309Z</time></trkpt><trkpt lat="44.1863246" lon="12.1179152"><ele>28.142857142857142</ele><time>2026-03-29T14:28:27.376Z</time></trkpt><trkpt lat="44.1862875" lon="12.1178415"><ele>28.285714285714285</ele><time>2026-03-29T14:28:37.435Z</time></trkpt><trkpt lat="44.1862318" lon="12.1177973"><ele>28.42857142857143</ele><time>2026-03-29T14:28:48.408Z</time></trkpt><trkpt lat="44.1862034" lon="12.1177164"><ele>28.571428571428573</ele><time>2026-03-29T14:28:54.403Z</time></trkpt><trkpt lat="44.1861519" lon="12.1176494"><ele>28.714285714285715</ele><time>2026-03-29T14:29:00.398Z</time></trkpt><trkpt lat="44.186072" lon="12.1176509"><ele>28.85714285714286</ele><time>2026-03-29T14:29:03.408Z</time></trkpt><trkpt lat="44.1859991" lon="12.1176365"><ele>29.000000000000004</ele><time>2026-03-29T14:29:07.409Z</time></trkpt><trkpt lat="44.1859329" lon="12.1176263"><ele>29.000000000000004</ele><time>2026-03-29T14:29:11.373Z</time></trkpt><trkpt lat="44.1858655" lon="12.117602"><ele>29.0</ele><time>2026-03-29T14:29:15.341Z</time></trkpt><trkpt lat="44.1858059" lon="12.117561"><ele>29.000000000000004</ele><time>2026-03-29T14:29:20.74Z</time></trkpt><trkpt lat="44.1857314" lon="12.1175636"><ele>29.000000000000004</ele><time>2026-03-29T14:29:27.443Z</time></trkpt><trkpt lat="44.1856731" lon="12.1175082"><ele>29.0</ele><time>2026-03-29T14:29:32.422Z</time></trkpt><trkpt lat="44.1856209" lon="12.1174536"><ele>29.000000000000004</ele><time>2026-03-29T14:29:37.401Z</time></trkpt><trkpt lat="44.1855621" lon="12.1173881"><ele>29.000000000000004</ele><time>2026-03-29T14:29:43.396Z</time></trkpt><trkpt lat="44.1855444" lon="12.1172998"><ele>29.000000000000004</ele><time>2026-03-29T14:29:49.39Z</time></trkpt><trkpt lat="44.1855617" lon="12.1171998"><ele>29.0</ele><time>2026-03-29T14:29:55.386Z</time></trkpt><trkpt lat="44.1855958" lon="12.1170994"><ele>29.000000000000004</ele><time>2026-03-29T14:30:00.364Z</time></trkpt><trkpt lat="44.185622" lon="12.1170091"><ele>29.000000000000004</ele><time>2026-03-29T14:30:05.343Z</time></trkpt><trkpt lat="44.1855896" lon="12.1169197"><ele>29.0</ele><time>2026-03-29T14:30:11.338Z</time></trkpt><trkpt lat="44.1855393" lon="12.116845"><ele>29.000000000000004</ele><time>2026-03-29T14:30:19.335Z</time></trkpt><trkpt lat="44.1854818" lon="12.1167993"><ele>29.000000000000004</ele><time>2026-03-29T14:30:24.355Z</time></trkpt><trkpt lat="44.1854242" lon="12.1167581"><ele>29.000000000000004</ele><time>2026-03-29T14:30:29.357Z</time></trkpt><trkpt lat="44.1853642" lon="12.1167109"><ele>29.0</ele><time>2026-03-29T14:30:35.419Z</time></trkpt><trkpt lat="44.185304" lon="12.1166642"><ele>29.000000000000004</ele><time>2026-03-29T14:30:41.414Z</time></trkpt><trkpt lat="44.1852535" lon="12.1166095"><ele>29.000000000000004</ele><time>2026-03-29T14:30:47.408Z</time></trkpt><trkpt lat="44.1852571" lon="12.1165196"><ele>29.0</ele><time>2026-03-29T14:30:52.387Z</time></trkpt><trkpt lat="44.1852818" lon="12.1164243"><ele>29.000000000000004</ele><time>2026-03-29T14:30:57.366Z</time></trkpt><trkpt lat="44.185305" lon="12.1163381"><ele>29.000000000000004</ele><time>2026-03-29T14:31:03.335Z</time></trkpt><trkpt lat="44.1853388" lon="12.1162541"><ele>29.142857142857146</ele><time>2026-03-29T14:31:09.356Z</time></trkpt><trkpt lat="44.1853643" lon="12.1161704"><ele>29.285714285714285</ele><time>2026-03-29T14:31:14.436Z</time></trkpt><trkpt lat="44.1853856" lon="12.1160818"><ele>29.42857142857143</ele><time>2026-03-29T14:31:20.431Z</time></trkpt><trkpt lat="44.1853364" lon="12.1160054"><ele>29.571428571428573</ele><time>2026-03-29T14:31:28.435Z</time></trkpt><trkpt lat="44.1852755" lon="12.1159693"><ele>29.714285714285715</ele><time>2026-03-29T14:31:32.42Z</time></trkpt><trkpt lat="44.1852005" lon="12.1159242"><ele>29.857142857142858</ele><time>2026-03-29T14:31:37.317Z</time></trkpt><trkpt lat="44.1851316" lon="12.1158788"><ele>30.0</ele><time>2026-03-29T14:31:43.394Z</time></trkpt><trkpt lat="44.1850759" lon="12.1158378"><ele>30.0</ele><time>2026-03-29T14:31:48.372Z</time></trkpt><trkpt lat="44.1850175" lon="12.1157942"><ele>30.0</ele><time>2026-03-29T14:31:52.397Z</time></trkpt><trkpt lat="44.1849913" lon="12.1157047"><ele>30.0</ele><time>2026-03-29T14:31:59.346Z</time></trkpt><trkpt lat="44.1849886" lon="12.1156017"><ele>30.0</ele><time>2026-03-29T14:32:05.442Z</time></trkpt><trkpt lat="44.1849395" lon="12.1155347"><ele>30.0</ele><time>2026-03-29T14:32:11.437Z</time></trkpt><trkpt lat="44.1848805" lon="12.1155006"><ele>30.0</ele><time>2026-03-29T14:32:17.355Z</time></trkpt><trkpt lat="44.184859" lon="12.115416"><ele>30.0</ele><time>2026-03-29T14:32:26.355Z</time></trkpt><trkpt lat="44.1848598" lon="12.1153268"><ele>29.0</ele><time>2026-03-29T14:32:30.457Z</time></trkpt><trkpt lat="44.1848735" lon="12.1152333"><ele>29.0</ele><time>2026-03-29T14:32:36.178Z</time></trkpt><trkpt lat="44.1848963" lon="12.1151452"><ele>29.0</ele><time>2026-03-29T14:32:41.411Z</time></trkpt><trkpt lat="44.1849224" lon="12.1150485"><ele>29.0</ele><time>2026-03-29T14:32:47.407Z</time></trkpt><trkpt lat="44.1849629" lon="12.1149746"><ele>29.0</ele><time>2026-03-29T14:32:54.416Z</time></trkpt></trkseg></trk></gpx>